Graceful Lady — 00 — position and weather

sailwx.info

Track history (hours):
 
Tides and Currents Weather Stations Pressure Air Temp Water Temp Dewpoint Dewpoint Depression Visibility Wind Speed Wind Dir Waves Ship Positions

Graceful Lady

Last reported at 2018-Jan-22 18:30 UTC. Time now 2018-Jan-22 18:33 UTC.
Position N 24°14' E 118°11'.

Type: Towing. MMSI: 200009587.

Date/timePositionNaut miles runAvg speedWind from/ knotsBaromVisibWave heightAir tempDewpointWater temp
2018-Jan-22 18:30N 24°14' E 118°11'470423250.2
2018-Jan-22 18:30N 31°34' E 121°19'539970950.4
2018-Jan-22 18:30N 22°38' E 120°14'5615722.2
2018-Jan-22 18:24N 31°59' E 120°26'5611402.7
2018-Jan-22 18:00N 22°38' E 120°14'537128940.6
2018-Jan-22 18:00N 31°32' E 121°22'47299898.7
2018-Jan-22 18:00N 24°12' E 118°11'1743.9
2018-Jan-22 17:37N 24°24' E 117°59'4634064.5
2018-Jan-22 17:30N 31°30' E 121°26'535481863.0
2018-Jan-22 17:30N 22°38' E 120°14'162323.8
2018-Jan-22 17:00N 24°25' E 118°02'45982702.0
2018-Jan-22 17:00N 31°27' E 121°29'533106595.9
2018-Jan-22 17:00N 22°38' E 120°14'5615301.6
2018-Jan-22 16:53N 31°59' E 120°26'51565.1
2018-Jan-22 16:48N 31°33' E 121°18'4615841.1
2018-Jan-22 16:43N 24°25' E 118°03'161756.4
2018-Jan-22 16:30N 22°38' E 120°14'16123205.2
2018-Jan-22 16:30N 24°25' E 118°03'161327.4
2018-Jan-22 16:01N 22°38' E 120°14'15662293.3
2018-Jan-22 16:00N 24°22' E 118°08'5122.1
2018-Jan-22 15:58N 24°25' E 118°03'0 0.0
2018-Jan-22 15:30N 24°25' E 118°03'95154.9
2018-Jan-22 15:30N 24°20' E 118°10'15313075.9
2018-Jan-22 15:30N 22°38' E 120°14'151308.9
2018-Jan-22 15:00N 24°17' E 118°11'109439.5
2018-Jan-22 15:00N 24°25' E 118°03'1612929.7
2018-Jan-22 14:57N 22°38' E 120°14'149336.6
2018-Jan-22 14:30N 24°15' E 118°11'124855.0
2018-Jan-22 14:30N 24°25' E 118°03'1613671.6
2018-Jan-22 14:28N 22°38' E 120°14'0 0.0
2018-Jan-22 14:00N 22°38' E 120°14'161145025.2
2018-Jan-22 14:00N 24°25' E 118°03'143497.9
2018-Jan-22 14:00N 24°13' E 118°10'148299.8
2018-Jan-22 13:30N 22°38' E 120°14'16121480.8
2018-Jan-22 13:30N 24°25' E 118°03'1653.3
2018-Jan-22 13:12N 24°32' E 118°19'4493682.9
2018-Jan-22 13:05N 31°33' E 121°18'4496194.6
2018-Jan-22 13:00N 24°32' E 118°19'15646787.0
2018-Jan-22 13:00N 22°38' E 120°14'161115993.5
2018-Jan-22 13:00N 24°25' E 118°03'16974.3
2018-Jan-22 12:59N 24°11' E 118°10'47213712.7
2018-Jan-22 12:57N 31°33' E 121°18'4611032.2
2018-Jan-22 12:30N 24°25' E 118°03'161579953.1
2018-Jan-22 12:30N 22°38' E 120°14'1477571.8
2018-Jan-22 12:29N 24°11' E 118°10'231943.2
2018-Jan-22 12:28N 24°32' E 118°19'4411137.4
2018-Jan-22 12:05N 31°11' E 121°51'4535402.2
2018-Jan-22 12:00N 24°25' E 118°03'1618966.4
2018-Jan-22 12:00N 24°32' E 118°19'15616512.6
2018-Jan-22 12:00N 22°38' E 120°14'1471398.1
2018-Jan-22 11:53N 24°11' E 118°10'4632189.3
2018-Jan-22 11:41N 31°10' E 121°52'4532694.1
2018-Jan-22 11:30N 24°25' E 118°03'1656899.2
2018-Jan-22 11:30N 24°32' E 118°19'44019089.8
2018-Jan-22 11:29N 31°10' E 121°53'5191086.8
2018-Jan-22 11:00N 22°38' E 120°14'16122308.1
2018-Jan-22 11:00N 24°25' E 118°03'452271391.4
2018-Jan-22 11:00N 31°09' E 121°55'5181053.1
2018-Jan-22 10:30N 22°38' E 120°14'51866540.1
2018-Jan-22 10:30N 31°07' E 121°57'45224661.3
2018-Jan-22 10:29N 24°25' E 118°03'161340.1
2018-Jan-22 10:00N 22°38' E 120°14'517206619.0
2018-Jan-22 10:00N 31°06' E 121°59'45249298.9
2018-Jan-22 10:00N 24°25' E 118°03'161316.9
2018-Jan-22 09:29N 22°38' E 120°14'16130527.6
2018-Jan-22 09:29N 24°25' E 118°03'161340.2
2018-Jan-22 09:00N 22°38' E 120°14'16114498.8
2018-Jan-22 09:00N 24°25' E 118°03'0 0.1
2018-Jan-22 08:30N 24°25' E 118°03'16138678.1
2018-Jan-22 08:30N 22°38' E 120°14'51630431.9
2018-Jan-22 08:29N 31°03' E 122°09'453922.8
2018-Jan-22 08:00N 24°25' E 118°04'16082471.1
2018-Jan-22 07:59N 22°38' E 120°14'16125224.9
2018-Jan-22 07:59N 24°25' E 118°03'46124757.8
2018-Jan-22 07:58N 31°33' E 121°18'56572.2
2018-Jan-22 07:52N 31°01' E 122°12'4671804.4
2018-Jan-22 07:37N 24°06' E 118°09'1451408.7
2018-Jan-22 07:30N 22°38' E 120°14'14526023.8
2018-Jan-22 07:30N 24°06' E 118°09'477858579.1
2018-Jan-22 07:30N 31°33' E 121°18'46192153.9
2018-Jan-22 07:30N 24°25' E 118°03'45190185.4
2018-Jan-22 07:29N 30°58' E 122°13'451929.2
2018-Jan-22 07:00N 24°25' E 118°03'161290159.9
2018-Jan-22 07:00N 22°38' E 120°14'53816834.0
2018-Jan-22 06:58N 31°33' E 121°18'613298.1
2018-Jan-22 06:57N 30°54' E 122°13'46516400.9
2018-Jan-22 06:56N 24°03' E 118°09'4563287.3
2018-Jan-22 06:47N 30°52' E 121°54'0 0.2
2018-Jan-22 06:30N 30°52' E 121°54'438121199.5
2018-Jan-22 06:30N 24°25' E 118°03'16110946.9
2018-Jan-22 06:29N 22°38' E 120°14'53833964.0
2018-Jan-22 06:28N 31°33' E 121°18'631967.0
2018-Jan-22 06:26N 30°50' E 122°12'5031161.6
2018-Jan-22 06:00N 22°38' E 120°14'16121492.8
2018-Jan-22 06:00N 24°25' E 118°03'46142532.6
2018-Jan-22 05:59N 31°33' E 121°18'51891.9
2018-Jan-22 05:56N 30°52' E 121°54'5021184.5
2018-Jan-22 05:30N 22°38' E 120°14'16148346.5
2018-Jan-22 05:30N 24°25' E 118°03'2475.2
2018-Jan-22 05:30N 24°25' E 118°05'2 4.0
2018-Jan-22 05:01N 24°25' E 118°03'16114503.9
2018-Jan-22 05:00N 22°38' E 120°14'5021741.4
2018-Jan-22 04:43N 30°52' E 121°54'5022381.5
2018-Jan-22 04:30N 22°38' E 120°14'1619356.9
2018-Jan-22 04:29N 24°25' E 118°03'2073980.2
2018-Jan-22 04:26N 25°09' E 121°46'173409.5
2018-Jan-22 04:00N 22°38' E 120°14'1733077.1
2018-Jan-22 03:57N 25°09' E 121°46'2073578.3
2018-Jan-22 03:54N 24°25' E 118°03'4611409.4
2018-Jan-22 03:34N 31°33' E 121°18'5389088.7
2018-Jan-22 03:30N 22°38' E 120°14'16124177.6
2018-Jan-22 03:30N 24°25' E 118°03'46116263.0
2018-Jan-22 03:28N 31°33' E 121°18'4606596.1
2018-Jan-22 03:24N 24°26' E 118°03'3 8.5
2018-Jan-22 03:00N 24°24' E 118°06'15971350.7
2018-Jan-22 03:00N 22°38' E 120°14'16122312.1
2018-Jan-22 03:00N 24°25' E 118°03'42922700.4
2018-Jan-22 02:59N 30°38' E 122°02'66194.2
2018-Jan-22 02:38N 31°33' E 121°18'5383926.9
2018-Jan-22 02:30N 22°38' E 120°14'161115999.1
2018-Jan-22 02:30N 24°25' E 118°03'2079790.9
2018-Jan-22 02:29N 25°09' E 121°46'207437.3
2018-Jan-22 02:00N 24°25' E 118°03'16116106.1
2018-Jan-22 02:00N 22°38' E 120°14'50237657.5
2018-Jan-22 01:59N 30°52' E 121°54'101325.3
2018-Jan-22 01:40N 31°59' E 120°26'4792644.2
2018-Jan-22 01:30N 24°15' E 118°10'15029958.9
2018-Jan-22 01:29N 22°38' E 120°14'1614872.4
2018-Jan-22 01:27N 24°25' E 118°03'161360.4
2018-Jan-22 01:00N 22°38' E 120°14'16123192.2
2018-Jan-22 01:00N 24°25' E 118°03'161323.9
2018-Jan-22 00:30N 22°38' E 120°14'16132213.0
2018-Jan-22 00:30N 24°25' E 118°03'161327.8
2018-Jan-22 00:00N 22°38' E 120°14'1619827.7
2018-Jan-21 23:59N 24°25' E 118°03'161332.9
2018-Jan-21 23:30N 22°38' E 120°14'161144958.5
2018-Jan-21 23:30N 24°25' E 118°03'43815005.2
2018-Jan-21 23:29N 30°52' E 121°54'402879.7
2018-Jan-21 23:01N 37°33' E 121°23'89763299.0
2018-Jan-21 23:00N 22°38' E 120°14'161115963.9
2018-Jan-21 23:00N 24°25' E 118°03'43840400.0
2018-Jan-21 23:00N 30°52' E 121°54'40116240.0
2018-Jan-21 22:58N 37°33' E 121°23'8971938.9
2018-Jan-21 22:30N 22°38' E 120°14'16138644.8
2018-Jan-21 22:30N 24°25' E 118°03'9858734.1
2018-Jan-21 22:30N 23°34' E 119°35'84426420.6
2018-Jan-21 22:28N 37°33' E 121°23'412884.3
2018-Jan-21 22:00N 30°43' E 122°14'497357556.1
2018-Jan-21 22:00N 22°38' E 120°14'16172459.0
2018-Jan-21 22:00N 24°25' E 118°03'80626376.1
2018-Jan-21 21:58N 37°33' E 121°23'11232476.9
2018-Jan-21 21:31N 21°09' E 111°03'51942487.9
2018-Jan-21 21:30N 22°38' E 120°14'51953431.1
2018-Jan-21 21:30N 21°08' E 111°03'493177654.3
2018-Jan-21 21:29N 23°34' E 119°33'9713400.2
2018-Jan-21 21:29N 24°25' E 118°03'80653729.0
2018-Jan-21 21:28N 37°33' E 121°23'8971940.1
2018-Jan-21 21:00N 22°38' E 120°14'16112881.3
2018-Jan-21 21:00N 24°25' E 118°03'43975171.7
2018-Jan-21 20:59N 21°08' E 110°59'44123680.2
2018-Jan-21 20:58N 24°17' E 118°10'813731725.6
2018-Jan-21 20:58N 37°33' E 121°23'8061733.2
2018-Jan-21 20:30N 24°25' E 118°03'16157982.0
2018-Jan-21 20:30N 22°38' E 120°14'89727829.7
2018-Jan-21 20:28N 37°33' E 121°23'112919532.4
2018-Jan-21 20:25N 21°06' E 110°54'4431098.9
2018-Jan-21 20:00N 24°25' E 118°03'161115955.2
2018-Jan-21 20:00N 22°38' E 120°14'1607794.2
2018-Jan-21 19:59N 24°25' E 118°04'80646046.3
2018-Jan-21 19:58N 37°33' E 121°23'113159875.7
2018-Jan-21 19:57N 21°06' E 110°50'5321203.7
2018-Jan-21 19:30N 22°38' E 120°14'16119997.4
2018-Jan-21 19:30N 24°25' E 118°03'45134557.6
2018-Jan-21 19:29N 31°04' E 122°01'39020948.4
2018-Jan-21 19:28N 37°33' E 121°23'1133240031.9
2018-Jan-21 19:28N 21°05' E 110°46'8511862.2
2018-Jan-21 19:00N 31°06' E 121°57'517464989.8
2018-Jan-21 19:00N 22°38' E 120°14'16120712.6
2018-Jan-21 19:00N 24°25' E 118°03'80627631.8
2018-Jan-21 18:58N 37°33' E 121°23'8971947.0
2018-Jan-21 18:30N 22°38' E 120°14'16112339.1
2018-Jan-21 18:30N 24°25' E 118°03'80630222.3
2018-Jan-21 18:28N 37°33' E 121°23'8971942.3
2018-Jan-21 18:00N 22°38' E 120°14'1616372.8
2018-Jan-21 17:59N 24°25' E 118°03'80660445.1
2018-Jan-21 17:58N 37°33' E 121°23'4017812.9
2018-Jan-21 17:55N 30°52' E 121°54'5021231.2
2018-Jan-21 17:31N 22°38' E 120°14'16126360.2
2018-Jan-21 17:30N 24°25' E 118°03'80623210.9
2018-Jan-21 17:28N 37°33' E 121°23'74415659.8
2018-Jan-21 17:25N 25°09' E 121°46'343833.3
2018-Jan-21 17:01N 30°52' E 121°54'502301252.6
2018-Jan-21 17:00N 22°38' E 120°14'1618655.8
2018-Jan-21 16:59N 24°25' E 118°03'80638684.6
2018-Jan-21 16:58N 37°33' E 121°23'3951777.7
2018-Jan-21 16:45N 30°60' E 122°11'5122110.1
2018-Jan-21 16:30N 22°38' E 120°14'1619829.7
2018-Jan-21 16:29N 24°25' E 118°03'80642666.8
2018-Jan-21 16:28N 37°33' E 121°23'40139063.5
2018-Jan-21 16:27N 30°52' E 121°54'17144.3
2018-Jan-21 16:21N 30°57' E 122°13'4501346.6
2018-Jan-21 16:00N 24°25' E 118°03'16157992.4
2018-Jan-21 16:00N 22°38' E 120°14'89723392.5
2018-Jan-21 15:58N 37°33' E 121°23'401481793.8
2018-Jan-21 15:58N 30°52' E 121°54'1446.3
2018-Jan-21 15:40N 30°39' E 122°01'4913071.7
2018-Jan-21 15:30N 22°38' E 120°14'161115984.7
2018-Jan-21 15:30N 24°25' E 118°03'42977202.0
2018-Jan-21 15:30N 30°39' E 122°01'42514722.2
2018-Jan-21 15:28N 24°29' E 118°04'802180467.3
2018-Jan-21 15:28N 37°33' E 121°23'8971949.4
2018-Jan-21 15:00N 22°38' E 120°14'16138662.5
2018-Jan-21 15:00N 24°25' E 118°03'80622318.0
2018-Jan-21 14:58N 37°33' E 121°23'1157793.6
2018-Jan-21 14:57N 35°52' E 120°15'7941784.2
2018-Jan-21 14:30N 22°38' E 120°14'16124164.7
2018-Jan-21 14:30N 24°25' E 118°03'80623978.0
2018-Jan-21 14:28N 37°33' E 121°23'1105511.8
2018-Jan-21 14:27N 35°55' E 120°19'7001564.1
2018-Jan-21 14:00N 24°25' E 118°03'80624587.1
2018-Jan-21 13:58N 37°33' E 121°23'1065363.2
2018-Jan-21 13:57N 35°60' E 120°20'80226478.4
2018-Jan-21 13:55N 22°38' E 120°14'1535389.4
2018-Jan-21 13:53N 24°20' E 118°10'822.0
2018-Jan-21 13:31N 24°25' E 118°03'1614601.4
2018-Jan-21 13:28N 22°38' E 120°14'897119561.6
2018-Jan-21 13:28N 37°33' E 121°23'1064334.8
2018-Jan-21 13:26N 36°02' E 120°15'7061622.9
2018-Jan-21 13:00N 24°25' E 118°03'16110938.9
2018-Jan-21 13:00N 22°38' E 120°14'89734711.2
2018-Jan-21 12:58N 37°33' E 121°23'40223313.3
2018-Jan-21 12:57N 30°52' E 121°54'320191809.9
2018-Jan-21 12:57N 36°00' E 120°13'8031821.3
2018-Jan-21 12:30N 22°37' E 120°14'80329798.4
2018-Jan-21 12:29N 36°00' E 120°13'1081721.6
2018-Jan-21 12:25N 37°33' E 121°23'80651810.1
2018-Jan-21 12:24N 24°25' E 118°03'43828647.3
2018-Jan-21 12:23N 30°52' E 121°54'5031327.8
2018-Jan-21 12:00N 22°37' E 120°13'1608884.1
2018-Jan-21 11:59N 24°25' E 118°03'43823871.4
2018-Jan-21 11:58N 30°52' E 121°54'40180294.7
2018-Jan-21 11:58N 37°33' E 121°23'108357.3
2018-Jan-21 11:40N 36°00' E 120°13'8025063.2
2018-Jan-21 11:30N 22°39' E 120°10'15825789.8
2018-Jan-21 11:30N 24°25' E 118°03'80624380.9
2018-Jan-21 11:28N 37°33' E 121°23'4014866.5
2018-Jan-21 11:23N 30°52' E 121°54'3201417.2
2018-Jan-21 11:09N 36°00' E 120°13'7044738.1
2018-Jan-21 11:01N 24°25' E 118°03'15415806.4
2018-Jan-21 11:00N 22°40' E 120°06'89526413.7
2018-Jan-21 10:58N 37°33' E 121°23'1081776.6
2018-Jan-21 10:54N 36°00' E 120°13'3209432.5
2018-Jan-21 10:52N 30°52' E 121°54'5011369.2
2018-Jan-21 10:30N 22°41' E 120°01'501601132.1
2018-Jan-21 10:30N 30°52' E 121°54'43812914.9
2018-Jan-21 10:28N 24°25' E 118°03'806170667.4
2018-Jan-21 10:28N 37°33' E 121°23'108323.7
2018-Jan-21 10:08N 36°00' E 120°13'7045558.9
2018-Jan-21 10:00N 24°25' E 118°03'80620289.1
2018-Jan-21 09:58N 37°33' E 121°23'40117004.2
2018-Jan-21 09:56N 30°52' E 121°54'3205183.8
2018-Jan-21 09:53N 36°00' E 120°13'7041723.2
2018-Jan-21 09:28N 24°25' E 118°03'806126145.5
2018-Jan-21 09:28N 37°33' E 121°23'74414553.4
2018-Jan-21 09:25N 25°09' E 121°46'65614314.8
2018-Jan-21 09:22N 36°00' E 120°13'320868.5
2018-Jan-21 09:00N 30°52' E 121°54'40111380.8
2018-Jan-21 08:58N 37°33' E 121°23'1082611.2
2018-Jan-21 08:55N 36°00' E 120°13'2791648.2
2018-Jan-21 08:45N 31°28' E 121°27'43174.2
2018-Jan-21 08:30N 30°52' E 121°54'43892681.2
2018-Jan-21 08:30N 24°25' E 118°03'80622318.0
2018-Jan-21 08:28N 37°33' E 121°23'3634383.5
2018-Jan-21 08:23N 31°30' E 121°25'4611229.1
2018-Jan-21 08:00N 24°25' E 118°03'46151848.2
2018-Jan-21 08:00N 31°31' E 121°23'605272.0
2018-Jan-21 07:59N 30°45' E 122°08'41018200.8
2018-Jan-21 07:58N 37°33' E 121°23'8061757.3
2018-Jan-21 07:30N 24°25' E 118°03'806725320.0
2018-Jan-21 07:30N 37°33' E 121°23'361648971.0
2018-Jan-21 07:30N 31°32' E 121°21'605364.7
2018-Jan-21 07:30N 30°47' E 122°07'327815.7
2018-Jan-21 07:06N 36°00' E 120°13'2723079.4
2018-Jan-21 07:00N 31°34' E 121°19'35926367.1
2018-Jan-21 06:59N 37°33' E 121°23'108704.8
2018-Jan-21 06:50N 36°00' E 120°13'270810.1
2018-Jan-21 06:30N 31°36' E 121°17'463139006.1
2018-Jan-21 06:30N 24°25' E 118°03'80659211.5
2018-Jan-21 06:29N 37°33' E 121°23'355739.5
2018-Jan-21 06:00N 31°38' E 121°15'4661678788.4
2018-Jan-21 06:00N 24°22' E 118°06'4426.7
2018-Jan-21 06:00N 24°25' E 118°03'80685334.2
2018-Jan-21 05:59N 37°33' E 121°23'8061680.0
2018-Jan-21 05:30N 24°25' E 118°03'0385.7
2018-Jan-21 05:30N 24°25' E 118°04'465128751.8
2018-Jan-21 05:30N 31°39' E 121°13'817.6
2018-Jan-21 05:03N 31°33' E 121°18'46110498.8
2018-Jan-21 05:00N 24°25' E 118°03'46672978.0
2018-Jan-21 05:00N 31°42' E 121°09'46372432.8
2018-Jan-21 05:00N 24°29' E 118°03'4577517.6
2018-Jan-21 04:56N 31°33' E 121°18'2731767.4
2018-Jan-21 04:47N 36°00' E 120°13'7042626.8
2018-Jan-21 04:31N 24°25' E 118°03'46862358.0
2018-Jan-21 04:30N 31°44' E 121°06'3974175.5
2018-Jan-21 04:24N 25°09' E 121°46'207509.8
2018-Jan-21 04:00N 24°25' E 118°03'4385991.2
2018-Jan-21 03:56N 30°52' E 121°54'3202015.5
2018-Jan-21 03:46N 36°00' E 120°13'0 0.0
2018-Jan-21 03:30N 36°00' E 120°13'70432087.4
2018-Jan-21 03:29N 24°25' E 118°03'46121826.7
2018-Jan-21 03:28N 31°33' E 121°18'513695.3
2018-Jan-21 03:27N 30°52' E 121°54'1593.9
2018-Jan-21 03:18N 31°07' E 121°56'4491534.6
2018-Jan-21 03:00N 24°28' E 118°03'449323279.5
2018-Jan-21 03:00N 31°07' E 121°55'305294.7
2018-Jan-21 01:58N 36°00' E 120°13'320679.3
2018-Jan-21 01:30N 30°52' E 121°54'32011065.0
2018-Jan-21 01:28N 36°00' E 120°13'0 0.0
2018-Jan-21 00:58N 36°00' E 120°13'3203316.6
2018-Jan-21 00:52N 30°52' E 121°54'0 0.0
2018-Jan-21 00:30N 30°52' E 121°54'3206429.4
2018-Jan-21 00:27N 36°00' E 120°13'0 0.0
2018-Jan-20 23:57N 36°00' E 120°13'0 0.0
2018-Jan-20 23:27N 36°00' E 120°13'3204835.4
2018-Jan-20 23:23N 30°52' E 121°54'320733.0
2018-Jan-20 22:57N 36°00' E 120°13'65624349.6
2018-Jan-20 22:55N 25°09' E 121°46'343806.0
2018-Jan-20 22:30N 30°52' E 121°54'3206690.8
2018-Jan-20 22:27N 36°00' E 120°13'320644.4
2018-Jan-20 21:57N 30°52' E 121°54'32025573.7
2018-Jan-20 21:56N 36°00' E 120°13'27311294.9
2018-Jan-20 21:55N 31°33' E 121°18'51125.3
2018-Jan-20 21:30N 30°52' E 121°54'6619938.0
2018-Jan-20 21:30N 31°44' E 121°06'1570.5
2018-Jan-20 21:17N 31°33' E 121°18'1141.1
2018-Jan-20 21:00N 31°42' E 121°09'631337.6
2018-Jan-20 20:58N 30°52' E 121°54'3206769.5
2018-Jan-20 20:55N 36°00' E 120°13'266655.0
2018-Jan-20 20:30N 31°39' E 121°13'591421.3
2018-Jan-20 20:28N 30°52' E 121°54'55119.2
2018-Jan-20 20:00N 31°36' E 121°17'55903.4
2018-Jan-20 19:57N 30°52' E 121°54'51721.5
2018-Jan-20 19:53N 31°33' E 121°18'2731399.8
2018-Jan-20 19:41N 36°00' E 120°13'2731575.0
2018-Jan-20 19:30N 31°33' E 121°20'219.0
2018-Jan-20 19:25N 31°33' E 121°18'27312438.6
2018-Jan-20 19:23N 36°00' E 120°13'276726.9
2018-Jan-20 19:00N 31°31' E 121°24'461818.9
2018-Jan-20 18:59N 30°52' E 121°54'511810.9
2018-Jan-20 18:57N 31°33' E 121°18'2734043.8
2018-Jan-20 18:53N 36°00' E 120°13'280718.6
2018-Jan-20 18:30N 31°27' E 121°28'37915318.9
2018-Jan-20 18:28N 25°09' E 121°46'6567570.2
2018-Jan-20 18:23N 36°00' E 120°13'0 0.0
2018-Jan-20 17:57N 36°00' E 120°13'3203552.0
2018-Jan-20 17:51N 30°52' E 121°54'0 0.0
2018-Jan-20 17:29N 30°52' E 121°54'3202403.3
2018-Jan-20 17:21N 36°00' E 120°13'2731646.8
2018-Jan-20 17:12N 31°33' E 121°18'0 0.0
2018-Jan-20 16:59N 31°33' E 121°18'273689.9
2018-Jan-20 16:35N 36°02' E 120°19'7088329.9
2018-Jan-20 16:30N 24°23' E 118°08'46215245.9
2018-Jan-20 16:29N 31°33' E 121°18'1054552651.9
2018-Jan-20 16:17N 26°56' W 080°03'1027264422.0
2018-Jan-20 16:07N 35°58' E 120°21'1027395810.2
2018-Jan-20 16:01N 26°57' W 080°05'10546643505.9
2018-Jan-20 16:00N 31°33' E 121°18'2671650.9
2018-Jan-20 15:50N 35°56' E 120°20'267791.5
2018-Jan-20 15:30N 31°33' E 121°18'10548115065.7
2018-Jan-20 15:24N 26°55' W 080°05'10599508773.3
2018-Jan-20 15:23N 31°09' E 121°54'4611187.7
2018-Jan-20 15:00N 24°13' E 118°10'4707109.6
2018-Jan-20 14:56N 31°33' E 121°18'10548140635.8
2018-Jan-20 14:51N 26°55' W 080°05'10601219327.7
2018-Jan-20 14:48N 22°18' E 114°11'6746193.1
2018-Jan-20 14:42N 31°06' E 122°00'45230.5
2018-Jan-20 14:30N 31°33' E 121°18'4728015.3
2018-Jan-20 14:30N 31°05' E 122°02'10609112002.7
2018-Jan-20 14:24N 26°55' W 080°05'1054824785.7
2018-Jan-20 13:59N 31°33' E 121°18'5111451.8
2018-Jan-20 13:58N 31°04' E 122°07'10615151037.3
2018-Jan-20 13:54N 26°55' W 080°05'1062026604.5
2018-Jan-20 13:30N 31°01' E 122°10'551202.0
2018-Jan-20 13:27N 31°33' E 121°18'4491278.1
2018-Jan-20 13:06N 24°32' E 118°19'0 0.0
2018-Jan-20 12:58N 24°32' E 118°19'43714187.9
2018-Jan-20 12:56N 30°58' E 122°12'17351.7
2018-Jan-20 12:54N 30°52' E 121°54'51397.3
2018-Jan-20 12:46N 31°33' E 121°18'0 0.0
2018-Jan-20 12:30N 31°33' E 121°18'44912436.8
2018-Jan-20 12:28N 24°32' E 118°19'4342885.6
2018-Jan-20 12:19N 30°54' E 122°14'17181.4
2018-Jan-20 12:13N 30°52' E 121°54'4251986.9
2018-Jan-20 12:00N 24°32' E 118°19'42513907.7
2018-Jan-20 11:59N 30°52' E 121°54'51443.7
2018-Jan-20 11:52N 31°33' E 121°18'4491249.5
2018-Jan-20 11:30N 24°32' E 118°19'42530597.8
2018-Jan-20 11:29N 30°52' E 121°54'51820.4
2018-Jan-20 11:26N 31°33' E 121°18'66533.6
2018-Jan-20 11:18N 30°47' E 122°14'2 5.5
2018-Jan-20 10:57N 30°45' E 122°14'18962.3
2018-Jan-20 10:56N 30°52' E 121°54'51122.7
2018-Jan-20 10:31N 31°33' E 121°18'514101.8
2018-Jan-20 10:30N 30°52' E 121°54'1969899.2
2018-Jan-20 10:30N 30°43' E 122°14'691418.9
2018-Jan-20 10:28N 31°33' E 121°18'4772093.4
2018-Jan-20 10:14N 24°06' E 118°09'2451220.3
2018-Jan-20 10:02N 22°18' E 114°09'24711531.8
2018-Jan-20 10:00N 24°08' E 118°09'24738585.3
2018-Jan-20 10:00N 22°18' E 114°09'67425821.4
2018-Jan-20 09:59N 31°33' E 121°18'4711006.9
2018-Jan-20 09:30N 24°13' E 118°10'47144593.5
2018-Jan-20 09:30N 31°33' E 121°18'466946.7
2018-Jan-20 09:00N 24°17' E 118°11'4639989.9
2018-Jan-20 08:58N 31°27' E 121°28'10309.3
2018-Jan-20 08:56N 31°33' E 121°18'4631090.2
2018-Jan-20 08:30N 24°21' E 118°09'20326042.3
2018-Jan-20 08:30N 25°09' E 121°46'385346242.2
2018-Jan-20 08:30N 31°33' E 121°18'61191.9
2018-Jan-20 08:29N 31°29' E 121°24'4 8.4
2018-Jan-20 08:01N 31°32' E 121°21'2926.3
2018-Jan-20 08:00N 31°33' E 121°18'461414949.9
2018-Jan-20 08:00N 24°25' E 118°05'1259.9
2018-Jan-20 08:00N 24°24' E 118°06'8072373.7
2018-Jan-20 07:40N 37°33' E 121°23'3602316.3
2018-Jan-20 07:30N 31°33' E 121°18'462138749.7
2018-Jan-20 07:30N 24°25' E 118°00'46420885.0
2018-Jan-20 07:29N 31°35' E 121°18'35818663.1
2018-Jan-20 07:28N 37°33' E 121°23'4011397.8
2018-Jan-20 07:10N 30°52' E 121°54'51310.5
2018-Jan-20 07:01N 31°33' E 121°18'5467.2
2018-Jan-20 07:00N 31°38' E 121°15'578484.4
2018-Jan-20 06:59N 30°52' E 121°54'40113383.1
2018-Jan-20 06:58N 37°33' E 121°23'360795.8
2018-Jan-20 06:31N 31°33' E 121°18'514873.9
2018-Jan-20 06:30N 30°52' E 121°54'6016540.3
2018-Jan-20 06:30N 31°40' E 121°12'35310422.5
2018-Jan-20 06:28N 37°33' E 121°23'360795.3
2018-Jan-20 06:01N 31°33' E 121°18'1120400.1
2018-Jan-20 06:00N 31°41' E 121°09'3517397.6
2018-Jan-20 05:58N 37°33' E 121°23'360795.8
2018-Jan-20 05:31N 31°33' E 121°18'3603699.5
2018-Jan-20 05:25N 37°33' E 121°23'7441830.4
2018-Jan-20 05:00N 25°09' E 121°46'385197852.7
2018-Jan-20 05:00N 31°33' E 121°18'3608353.7
2018-Jan-20 04:58N 37°33' E 121°23'7441609.3
2018-Jan-20 04:30N 25°09' E 121°46'74419546.1
2018-Jan-20 04:28N 37°33' E 121°23'3603383.8
2018-Jan-20 04:21N 31°33' E 121°18'0 0.0
2018-Jan-20 04:00N 31°33' E 121°18'384345963.3
2018-Jan-20 04:00N 25°09' E 121°46'74420441.4
2018-Jan-20 03:58N 37°33' E 121°23'7441641.8
2018-Jan-20 03:30N 25°09' E 121°46'38425626.9
2018-Jan-20 03:30N 31°33' E 121°18'36011172.3
2018-Jan-20 03:28N 37°33' E 121°23'0 0.0
2018-Jan-20 02:59N 37°33' E 121°23'74441840.6
2018-Jan-20 02:58N 25°09' E 121°46'38420967.1
2018-Jan-20 02:57N 31°33' E 121°18'51524.7
2018-Jan-20 02:51N 31°59' E 120°26'337931.1
2018-Jan-20 02:29N 37°33' E 121°23'80329203.0
2018-Jan-20 02:28N 24°28' E 118°03'45858893.7
2018-Jan-20 02:27N 31°33' E 121°18'51505.9
2018-Jan-20 02:21N 31°59' E 120°26'4711344.4
2018-Jan-20 02:00N 24°25' E 118°04'8061450098.7
2018-Jan-20 02:00N 37°33' E 121°23'36020249.9
2018-Jan-20 01:59N 31°33' E 121°18'51343.9
2018-Jan-20 01:50N 31°59' E 120°26'51091.5
2018-Jan-20 01:50N 32°01' E 120°32'49153.1
2018-Jan-20 01:30N 31°32' E 121°20'46287523.0
2018-Jan-20 01:30N 24°23' E 118°07'4728418.9
2018-Jan-20 01:27N 31°59' E 120°26'4741071.5
2018-Jan-20 01:00N 24°20' E 118°10'46311667.1
2018-Jan-20 00:58N 31°33' E 121°19'52264.1
2018-Jan-20 00:46N 31°59' E 120°26'51190.1
2018-Jan-20 00:30N 31°33' E 121°18'0 0.0
2018-Jan-20 00:00N 31°33' E 121°18'3581167.3
2018-Jan-19 23:41N 37°25' E 119°57'0 0.0
2018-Jan-19 23:29N 37°25' E 119°57'35833074.8
2018-Jan-19 23:29N 31°33' E 121°18'4632896.4
2018-Jan-19 23:19N 24°22' E 118°06'7882392.5
2018-Jan-19 22:59N 37°25' E 119°57'35813029.5
2018-Jan-19 22:58N 31°33' E 121°18'46146053.2
2018-Jan-19 22:57N 24°25' E 118°04'7851698.3
2018-Jan-19 22:29N 37°25' E 119°57'40528011.7
2018-Jan-19 22:28N 30°52' E 121°54'51213.3
2018-Jan-19 22:14N 31°33' E 121°18'3581462.4
2018-Jan-19 21:59N 37°25' E 119°57'35813028.4
2018-Jan-19 21:58N 31°33' E 121°18'265928.1
2018-Jan-19 21:40N 35°53' E 120°15'2651343.7
2018-Jan-19 21:29N 31°33' E 121°18'514992.7
2018-Jan-19 21:28N 30°52' E 121°54'3136705.1
2018-Jan-19 21:25N 35°54' E 120°18'313756.0
2018-Jan-19 21:00N 30°52' E 121°54'51747.9
2018-Jan-19 20:56N 31°33' E 121°18'27015400.6
2018-Jan-19 20:55N 35°58' E 120°21'270607.9
2018-Jan-19 20:29N 31°33' E 121°18'2734506.6
2018-Jan-19 20:25N 36°01' E 120°19'319127708.0
2018-Jan-19 20:25N 30°52' E 121°54'0 0.1
2018-Jan-19 19:58N 30°52' E 121°54'3216790.0
2018-Jan-19 19:55N 36°02' E 120°14'72215299.8
2018-Jan-19 19:52N 24°07' E 118°10'4767575.1
2018-Jan-19 19:49N 31°33' E 121°18'4721566.5
2018-Jan-19 19:30N 24°11' E 118°10'4724532.3
2018-Jan-19 19:24N 31°33' E 121°18'273327086.4
2018-Jan-19 19:24N 35°60' E 120°12'711255925.3
2018-Jan-19 19:24N 24°17' E 118°10'410.0
2018-Jan-19 19:00N 24°21' E 118°10'51521.6
2018-Jan-19 19:00N 24°16' E 118°11'7126761.9
2018-Jan-19 18:54N 35°60' E 120°12'2735247.4
2018-Jan-19 18:51N 31°33' E 121°18'4631361.1
2018-Jan-19 18:30N 24°20' E 118°10'7075499.6
2018-Jan-19 18:23N 35°60' E 120°12'2671578.3
2018-Jan-19 18:13N 31°38' E 121°16'5153.1
2018-Jan-19 18:11N 31°33' E 121°18'4612753.1
2018-Jan-19 18:00N 24°24' E 118°06'46197655.0
2018-Jan-19 18:00N 31°33' E 121°18'513130.4
2018-Jan-19 17:59N 30°52' E 121°54'543551.5
2018-Jan-19 17:58N 31°36' E 121°17'2692661.9
2018-Jan-19 17:52N 35°60' E 120°12'2412071.6
2018-Jan-19 17:45N 31°59' E 120°26'4701915.6
2018-Jan-19 17:31N 24°26' E 118°03'46183036.8
2018-Jan-19 17:30N 31°33' E 121°20'2734214.3
2018-Jan-19 17:26N 35°60' E 120°12'2411388.8
2018-Jan-19 17:16N 31°59' E 120°26'11711657.8
2018-Jan-19 17:15N 30°37' E 122°03'68405.7
2018-Jan-19 17:05N 31°33' E 121°18'675.7
2018-Jan-19 17:00N 31°31' E 121°24'6121.0
2018-Jan-19 16:58N 31°33' E 121°18'2732542.1
2018-Jan-19 16:51N 35°60' E 120°12'2413167.9
2018-Jan-19 16:47N 31°59' E 120°26'6704588.0
2018-Jan-19 16:38N 22°18' E 114°11'1 8.7
2018-Jan-19 16:30N 22°17' E 114°10'6719512.4
2018-Jan-19 16:26N 31°59' E 120°26'1012568.0
2018-Jan-19 16:24N 30°52' E 121°54'513028.1
2018-Jan-19 16:23N 31°33' E 121°18'51136.9
2018-Jan-19 16:00N 30°52' E 121°54'511015.0
2018-Jan-19 15:57N 31°33' E 121°18'51113.8
2018-Jan-19 15:30N 30°52' E 121°54'517105.6
2018-Jan-19 15:30N 31°33' E 121°18'2731703.6
2018-Jan-19 15:20N 35°60' E 120°12'319834.3
2018-Jan-19 14:57N 30°52' E 121°54'517389.2
2018-Jan-19 14:57N 31°33' E 121°18'4604071.3
2018-Jan-19 14:50N 24°27' E 118°00'70281551.1
2018-Jan-19 14:50N 35°60' E 120°12'7032203.7
2018-Jan-19 14:30N 24°26' E 118°03'4606471.5
2018-Jan-19 14:26N 31°33' E 121°18'51554.7
2018-Jan-19 14:21N 30°52' E 121°54'31911731.6
2018-Jan-19 14:19N 35°60' E 120°12'241869.7
2018-Jan-19 14:02N 31°59' E 120°26'47214513.7
2018-Jan-19 14:00N 24°24' E 118°07'14662.5
2018-Jan-19 13:59N 24°32' E 118°19'44955751.1
2018-Jan-19 13:59N 31°33' E 121°18'51359.4
2018-Jan-19 13:50N 31°59' E 120°26'101976.1
2018-Jan-19 13:44N 30°52' E 121°54'3191919.4
2018-Jan-19 13:34N 35°60' E 120°12'69411959.5
2018-Jan-19 13:30N 24°32' E 118°19'151323.8
2018-Jan-19 13:30N 24°27' E 118°03'92475.6
2018-Jan-19 13:30N 24°21' E 118°10'46326870.3
2018-Jan-19 13:29N 31°33' E 121°18'51359.4
2018-Jan-19 13:20N 31°59' E 120°26'24110585.6
2018-Jan-19 13:19N 35°60' E 120°12'7042303.0
2018-Jan-19 13:00N 24°25' E 118°06'96178.7
2018-Jan-19 13:00N 24°17' E 118°11'1712062.8
2018-Jan-19 13:00N 24°32' E 118°19'44911801.5
2018-Jan-19 12:58N 31°33' E 121°18'5126235.3
2018-Jan-19 12:58N 31°59' E 120°26'2411555.6
2018-Jan-19 12:48N 35°60' E 120°12'7142374.8
2018-Jan-19 12:30N 24°14' E 118°11'2010264.2
2018-Jan-19 12:30N 24°32' E 118°19'44957742.3
2018-Jan-19 12:30N 31°33' E 121°18'462184860.9
2018-Jan-19 12:30N 24°22' E 118°09'42823321.7
2018-Jan-19 12:29N 30°36' E 122°01'3361922.9
2018-Jan-19 12:18N 35°60' E 120°12'273912.8
2018-Jan-19 12:00N 31°33' E 121°18'44930505.7
2018-Jan-19 11:59N 24°32' E 118°19'231160.6
2018-Jan-19 11:58N 24°10' E 118°11'9418.9
2018-Jan-19 11:57N 24°19' E 118°11'4296013.0
2018-Jan-19 11:53N 30°36' E 122°01'3364350.8
2018-Jan-19 11:48N 35°60' E 120°12'8812349.5
2018-Jan-19 11:25N 22°18' E 114°09'6743136.0
2018-Jan-19 11:13N 31°33' E 121°18'2 9.3
2018-Jan-19 11:00N 31°34' E 121°19'386154437.9
2018-Jan-19 11:00N 25°09' E 121°46'387782.4
2018-Jan-19 10:31N 31°35' E 121°19'53267.7
2018-Jan-19 10:19N 30°52' E 121°54'53177.4
2018-Jan-19 10:01N 31°36' E 121°19'70409.0
2018-Jan-19 09:50N 30°36' E 122°01'67172.1
2018-Jan-19 09:27N 31°36' E 121°26'728.3
2018-Jan-19 09:11N 31°33' E 121°18'2 9.1
2018-Jan-19 09:00N 31°34' E 121°18'576.9
2018-Jan-19 08:56N 31°37' E 121°23'270606.8
2018-Jan-19 08:30N 35°60' E 120°12'273981259.1
2018-Jan-19 08:30N 31°33' E 121°18'5416623.1
2018-Jan-19 08:25N 22°34' E 120°19'5411087.2
2018-Jan-19 07:55N 31°33' E 121°18'2731635.4
2018-Jan-19 07:45N 35°60' E 120°12'2721125.5
2018-Jan-19 07:30N 31°34' E 121°19'5425690.7
2018-Jan-19 07:25N 22°34' E 120°19'5421164.1
2018-Jan-19 06:57N 31°34' E 121°18'52907.3
2018-Jan-19 06:53N 30°52' E 121°54'1810981.2
2018-Jan-19 06:53N 30°42' E 122°12'119444.0
2018-Jan-19 06:37N 31°59' E 120°26'117964.5
2018-Jan-19 06:30N 30°45' E 122°13'33127672.1
2018-Jan-19 06:29N 35°60' E 120°12'2701905.3
2018-Jan-19 06:21N 31°35' E 121°17'50565.6
2018-Jan-19 06:15N 31°59' E 120°26'115450.4
2018-Jan-19 06:00N 30°48' E 122°13'3278186.3
2018-Jan-19 05:58N 35°60' E 120°12'2691261.9
2018-Jan-19 05:45N 31°36' E 121°16'66272.9
2018-Jan-19 05:30N 30°52' E 122°13'642633.4
2018-Jan-19 05:29N 31°35' E 121°17'27012798.5
2018-Jan-19 05:28N 35°60' E 120°12'7062608.0
2018-Jan-19 05:11N 24°24' E 117°57'861.3
2018-Jan-19 05:03N 24°29' E 118°04'4448691.4
2018-Jan-19 05:00N 30°55' E 122°12'3216280.9
2018-Jan-19 04:57N 35°60' E 120°12'70630979.0
2018-Jan-19 04:56N 24°24' E 117°57'87468.1
2018-Jan-19 04:56N 24°29' E 118°04'4593365.4
2018-Jan-19 04:48N 31°35' E 121°17'60208.8
2018-Jan-19 04:30N 30°58' E 122°12'44815503.2
2018-Jan-19 04:29N 24°28' E 118°03'5386.2
2018-Jan-19 04:28N 24°25' E 117°59'46353742.1
2018-Jan-19 04:27N 31°33' E 121°18'27316085.9
2018-Jan-19 04:26N 35°60' E 120°12'7041638.2
2018-Jan-19 04:01N 24°25' E 118°05'452162648.0
2018-Jan-19 04:00N 31°01' E 122°11'45510842.9
2018-Jan-19 03:58N 24°24' E 117°59'70627341.8
2018-Jan-19 03:56N 36°01' E 120°14'27446926.4
2018-Jan-19 03:56N 31°33' E 121°18'53125.5
2018-Jan-19 03:31N 31°02' E 122°09'454136073.0
2018-Jan-19 03:30N 24°22' E 118°09'10233.5
2018-Jan-19 03:28N 24°24' E 117°59'70815161.9
2018-Jan-19 03:25N 36°02' E 120°18'2749471.9
2018-Jan-19 03:23N 31°33' E 121°18'1 3.9
2018-Jan-19 03:01N 31°32' E 121°20'499378.5
2018-Jan-19 03:00N 31°03' E 122°06'457822082.4
2018-Jan-19 03:00N 24°18' E 118°10'12313.9
2018-Jan-19 02:58N 24°24' E 117°59'70513722.9
2018-Jan-19 02:55N 35°59' E 120°21'240786.4
2018-Jan-19 02:36N 31°59' E 120°26'100948.0
2018-Jan-19 02:30N 31°04' E 122°04'46034492.3
2018-Jan-19 02:29N 24°15' E 118°08'13494.2
2018-Jan-19 02:28N 24°24' E 117°59'4636361.8
2018-Jan-19 02:23N 31°32' E 121°20'45117.3
2018-Jan-19 02:01N 31°05' E 122°01'4641782.9
2018-Jan-19 02:00N 31°33' E 121°18'46310747.8
2018-Jan-19 01:58N 24°25' E 117°59'454995.7
2018-Jan-19 01:31N 31°06' E 121°59'4654603.3
2018-Jan-19 01:30N 31°35' E 121°17'46510583.8
2018-Jan-19 01:28N 24°25' E 117°59'4651007.4
2018-Jan-19 01:00N 31°35' E 121°17'424005.5
2018-Jan-19 01:00N 31°07' E 121°55'45416335.7
2018-Jan-19 00:58N 24°25' E 117°59'4721106.7
2018-Jan-19 00:32N 31°59' E 120°26'883030.2
2018-Jan-19 00:31N 31°10' E 121°51'371651.4
2018-Jan-19 00:29N 31°33' E 121°18'46320821.6
2018-Jan-19 00:28N 24°25' E 117°59'4721913.3
2018-Jan-19 00:13N 31°59' E 120°26'83397.6
2018-Jan-19 00:01N 31°13' E 121°48'323036.0
2018-Jan-19 00:00N 31°33' E 121°18'46313766.4
2018-Jan-18 23:58N 24°25' E 117°59'463996.3
2018-Jan-18 23:30N 31°33' E 121°18'46312813.5
2018-Jan-18 23:28N 24°25' E 117°59'463926.4
2018-Jan-18 22:58N 31°33' E 121°18'0 0.0
2018-Jan-18 22:30N 31°33' E 121°18'46311898.2
2018-Jan-18 22:28N 24°25' E 117°59'4391570.9
2018-Jan-18 22:11N 30°42' E 122°13'2 9.2
2018-Jan-18 22:00N 30°43' E 122°13'682826.9
2018-Jan-18 21:59N 31°33' E 121°18'46324496.3
2018-Jan-18 21:58N 24°25' E 117°59'4616937.7
2018-Jan-18 21:54N 31°26' E 121°29'4 9.1
2018-Jan-18 21:31N 31°29' E 121°26'8485.5
2018-Jan-18 21:30N 31°33' E 121°18'6529298.4
2018-Jan-18 21:29N 30°48' E 122°13'44516846.3
2018-Jan-18 21:28N 24°25' E 117°59'4631016.9
2018-Jan-18 21:01N 31°31' E 121°22'5935243.4
2018-Jan-18 21:00N 30°52' E 122°13'44810473.3
2018-Jan-18 20:58N 24°25' E 117°59'4641018.9
2018-Jan-18 20:31N 31°34' E 121°19'6014346.1
2018-Jan-18 20:30N 30°56' E 122°13'45111207.2
2018-Jan-18 20:28N 24°25' E 117°59'454992.9
2018-Jan-18 20:00N 30°60' E 122°11'606379.9
2018-Jan-18 20:00N 31°37' E 121°16'46613864.1
2018-Jan-18 19:58N 24°25' E 117°59'4671019.0
2018-Jan-18 19:30N 31°39' E 121°13'593862.1
2018-Jan-18 19:29N 31°03' E 122°08'45517429.0
2018-Jan-18 19:28N 24°25' E 117°59'4681027.1
2018-Jan-18 19:01N 31°41' E 121°10'46810527.8
2018-Jan-18 18:58N 24°25' E 117°59'591317592.7
2018-Jan-18 18:38N 49°17' W 122°51'541546302.1
2018-Jan-18 18:31N 31°59' E 120°26'5413335995.1
2018-Jan-18 18:30N 49°18' W 122°53'5396273607.8
2018-Jan-18 18:29N 31°43' E 121°08'46942176.7
2018-Jan-18 18:28N 24°25' E 117°59'0 0.2
2018-Jan-18 17:58N 24°25' E 117°59'5908312779.9
2018-Jan-18 17:57N 49°20' W 122°56'539316708.5
2018-Jan-18 17:37N 31°33' E 121°18'1 6.8
2018-Jan-18 17:31N 31°33' E 121°19'539239214.2
2018-Jan-18 17:22N 49°20' W 122°57'2 4.4
2018-Jan-18 16:58N 49°18' W 122°58'539158989.6
2018-Jan-18 16:53N 31°35' E 121°18'539712227.3
2018-Jan-18 16:26N 49°17' W 122°51'53985792.6
2018-Jan-18 15:30N 31°33' E 121°18'463416718.2
2018-Jan-18 15:30N 24°24' E 117°59'2 4.4
2018-Jan-18 15:00N 24°25' E 118°01'46116128.0
2018-Jan-18 14:59N 31°33' E 121°18'51166.3
2018-Jan-18 14:40N 31°59' E 120°26'4712859.3
2018-Jan-18 14:30N 24°25' E 118°05'46130713.7
2018-Jan-18 14:30N 31°33' E 121°18'512135.0
2018-Jan-18 14:28N 31°59' E 120°26'4721024.5
2018-Jan-18 14:00N 24°23' E 118°08'46225575.2
2018-Jan-18 13:59N 31°33' E 121°18'511505.0
2018-Jan-18 13:57N 31°59' E 120°26'7163.9
2018-Jan-18 13:55N 32°00' E 120°34'91651.6
2018-Jan-18 13:47N 31°06' E 121°59'4531698.4
2018-Jan-18 13:30N 24°20' E 118°10'46323162.8
2018-Jan-18 13:29N 31°33' E 121°18'5025789.4
2018-Jan-18 13:29N 32°02' E 120°30'962039.7
2018-Jan-18 13:26N 31°05' E 122°01'4551055.3
2018-Jan-18 13:00N 24°17' E 118°11'46617842.4
2018-Jan-18 12:59N 31°33' E 121°19'469983.1
2018-Jan-18 12:30N 24°15' E 118°11'4683223.3
2018-Jan-18 12:22N 31°33' E 121°18'837.8
2018-Jan-18 12:10N 31°29' E 121°25'4693100.2
2018-Jan-18 12:00N 24°12' E 118°11'469281695.0
2018-Jan-18 12:00N 31°29' E 121°24'3 6.5
2018-Jan-18 11:29N 31°31' E 121°21'47262886.3
2018-Jan-18 11:29N 24°11' E 118°11'47210963.1
2018-Jan-18 11:26N 31°33' E 121°18'4652925.3
2018-Jan-18 11:16N 24°15' E 118°20'310.3
2018-Jan-18 10:57N 24°16' E 118°17'465836911.7
2018-Jan-18 10:57N 31°33' E 121°18'4723616.0
2018-Jan-18 10:50N 24°11' E 118°10'722.2
2018-Jan-18 10:30N 24°18' E 118°12'759.9
2018-Jan-18 10:23N 24°11' E 118°10'0 0.0
2018-Jan-18 09:59N 24°11' E 118°10'0 0.1
2018-Jan-18 09:20N 24°11' E 118°11'0 0.0
2018-Jan-18 08:59N 24°11' E 118°11'4721479.3
2018-Jan-18 08:39N 31°33' E 121°18'6734887.0
2018-Jan-18 08:31N 22°17' E 114°11'011.1
2018-Jan-18 08:30N 22°17' E 114°11'2487827.2
2018-Jan-18 08:29N 24°11' E 118°11'7129632.7
2018-Jan-18 08:24N 35°54' E 120°17'2662883.9
2018-Jan-18 08:19N 31°33' E 121°18'4721088.2
2018-Jan-18 07:53N 24°11' E 118°11'71618289.5
2018-Jan-18 07:50N 35°58' E 120°21'270874.9
2018-Jan-18 07:32N 31°33' E 121°18'0 1.8
2018-Jan-18 07:31N 31°33' E 121°18'47214405.2
2018-Jan-18 07:29N 24°11' E 118°11'7195007.8
2018-Jan-18 07:20N 36°01' E 120°18'274831.1
2018-Jan-18 07:00N 31°32' E 121°19'47217705.8
2018-Jan-18 06:59N 24°11' E 118°11'7184382.9
2018-Jan-18 06:49N 36°01' E 120°14'3181513.7
2018-Jan-18 06:36N 30°58' E 122°10'55569.1
2018-Jan-18 06:30N 31°32' E 121°20'47216040.7
2018-Jan-18 06:29N 24°11' E 118°11'45910588.8
2018-Jan-18 06:26N 30°57' E 122°10'3182095.6
2018-Jan-18 06:17N 35°60' E 120°12'723371681.2
2018-Jan-18 06:17N 24°05' E 118°10'4781688.0
2018-Jan-18 06:00N 31°32' E 121°20'47223291.6
2018-Jan-18 05:59N 24°11' E 118°10'3208.7
2018-Jan-18 05:58N 24°08' E 118°11'4863923.2
2018-Jan-18 05:50N 31°59' E 120°26'2417615.2
2018-Jan-18 05:48N 35°60' E 120°12'3221436.4
2018-Jan-18 05:35N 30°53' E 122°08'4525774.6
2018-Jan-18 05:30N 24°12' E 118°11'45290372.5
2018-Jan-18 05:30N 30°52' E 122°08'4533674.9
2018-Jan-18 05:23N 24°11' E 118°10'71720164.7
2018-Jan-18 05:20N 35°60' E 120°12'0 0.0
2018-Jan-18 05:01N 35°60' E 120°12'711426794.0
2018-Jan-18 05:00N 24°16' E 118°11'670.1
2018-Jan-18 04:56N 24°11' E 118°10'45024543.2
2018-Jan-18 04:54N 30°49' E 122°07'1111058.8
2018-Jan-18 04:48N 31°59' E 120°26'4741587.6
2018-Jan-18 04:30N 24°20' E 118°10'70767016.1
2018-Jan-18 04:30N 35°60' E 120°12'717258097.0
2018-Jan-18 04:29N 24°11' E 118°10'4835163.7
2018-Jan-18 04:24N 31°59' E 120°26'4731211.5
2018-Jan-18 04:00N 24°26' E 117°53'1424323.4
2018-Jan-18 04:00N 24°22' E 118°07'14398.9
2018-Jan-18 03:58N 24°09' E 118°10'7193137.7
2018-Jan-18 03:45N 35°60' E 120°12'7213069.3
2018-Jan-18 03:30N 24°06' E 118°10'72130193.4
2018-Jan-18 03:29N 35°60' E 120°12'27316630.6
2018-Jan-18 03:28N 31°33' E 121°18'67411446.3
2018-Jan-18 03:24N 22°18' E 114°09'2421058.9
2018-Jan-18 03:11N 24°26' E 117°53'4652652.0
2018-Jan-18 03:00N 31°33' E 121°20'2729251.2
2018-Jan-18 02:58N 35°60' E 120°12'273566.2
2018-Jan-18 02:30N 31°33' E 121°18'273640.9
2018-Jan-18 02:04N 35°60' E 120°12'2733924.8
2018-Jan-18 02:00N 31°33' E 121°18'2736094.4
2018-Jan-18 01:57N 35°60' E 120°12'273539.7
2018-Jan-18 01:27N 31°33' E 121°18'0 0.0
2018-Jan-18 00:59N 31°33' E 121°18'2736629.8
2018-Jan-18 00:57N 35°60' E 120°12'241976.5
2018-Jan-18 00:42N 31°59' E 120°26'241200.1
2018-Jan-17 23:30N 35°60' E 120°12'  
Track history (hours):
 
Tides and Currents Weather Stations Pressure Air Temp Water Temp Dewpoint Dewpoint Depression Visibility Wind Speed Wind Dir Waves Ship Positions

Graceful Lady

Last reported at 2018-Jan-22 18:30 UTC. Time now 2018-Jan-22 18:33 UTC.
Position N 24°14' E 118°11'.

Type: Towing. MMSI: 200009587.

Date/timePositionNaut miles runAvg speedWind from/ knotsBaromVisibWave heightAir tempDewpointWater temp
2018-Jan-22 18:30N 24°14' E 118°11'470423250.2
2018-Jan-22 18:30N 31°34' E 121°19'539970950.4
2018-Jan-22 18:30N 22°38' E 120°14'5615722.2
2018-Jan-22 18:24N 31°59' E 120°26'5611402.7
2018-Jan-22 18:00N 22°38' E 120°14'537128940.6
2018-Jan-22 18:00N 31°32' E 121°22'47299898.7
2018-Jan-22 18:00N 24°12' E 118°11'1743.9
2018-Jan-22 17:37N 24°24' E 117°59'4634064.5
2018-Jan-22 17:30N 31°30' E 121°26'535481863.0
2018-Jan-22 17:30N 22°38' E 120°14'162323.8
2018-Jan-22 17:00N 24°25' E 118°02'45982702.0
2018-Jan-22 17:00N 31°27' E 121°29'533106595.9
2018-Jan-22 17:00N 22°38' E 120°14'5615301.6
2018-Jan-22 16:53N 31°59' E 120°26'51565.1
2018-Jan-22 16:48N 31°33' E 121°18'4615841.1
2018-Jan-22 16:43N 24°25' E 118°03'161756.4
2018-Jan-22 16:30N 22°38' E 120°14'16123205.2
2018-Jan-22 16:30N 24°25' E 118°03'161327.4
2018-Jan-22 16:01N 22°38' E 120°14'15662293.3
2018-Jan-22 16:00N 24°22' E 118°08'5122.1
2018-Jan-22 15:58N 24°25' E 118°03'0 0.0
2018-Jan-22 15:30N 24°25' E 118°03'95154.9
2018-Jan-22 15:30N 24°20' E 118°10'15313075.9
2018-Jan-22 15:30N 22°38' E 120°14'151308.9
2018-Jan-22 15:00N 24°17' E 118°11'109439.5
2018-Jan-22 15:00N 24°25' E 118°03'1612929.7
2018-Jan-22 14:57N 22°38' E 120°14'149336.6
2018-Jan-22 14:30N 24°15' E 118°11'124855.0
2018-Jan-22 14:30N 24°25' E 118°03'1613671.6
2018-Jan-22 14:28N 22°38' E 120°14'0 0.0
2018-Jan-22 14:00N 22°38' E 120°14'161145025.2
2018-Jan-22 14:00N 24°25' E 118°03'143497.9
2018-Jan-22 14:00N 24°13' E 118°10'148299.8
2018-Jan-22 13:30N 22°38' E 120°14'16121480.8
2018-Jan-22 13:30N 24°25' E 118°03'1653.3
2018-Jan-22 13:12N 24°32' E 118°19'4493682.9
2018-Jan-22 13:05N 31°33' E 121°18'4496194.6
2018-Jan-22 13:00N 24°32' E 118°19'15646787.0
2018-Jan-22 13:00N 22°38' E 120°14'161115993.5
2018-Jan-22 13:00N 24°25' E 118°03'16974.3
2018-Jan-22 12:59N 24°11' E 118°10'47213712.7
2018-Jan-22 12:57N 31°33' E 121°18'4611032.2
2018-Jan-22 12:30N 24°25' E 118°03'161579953.1
2018-Jan-22 12:30N 22°38' E 120°14'1477571.8
2018-Jan-22 12:29N 24°11' E 118°10'231943.2
2018-Jan-22 12:28N 24°32' E 118°19'4411137.4
2018-Jan-22 12:05N 31°11' E 121°51'4535402.2
2018-Jan-22 12:00N 24°25' E 118°03'1618966.4
2018-Jan-22 12:00N 24°32' E 118°19'15616512.6
2018-Jan-22 12:00N 22°38' E 120°14'1471398.1
2018-Jan-22 11:53N 24°11' E 118°10'4632189.3
2018-Jan-22 11:41N 31°10' E 121°52'4532694.1
2018-Jan-22 11:30N 24°25' E 118°03'1656899.2
2018-Jan-22 11:30N 24°32' E 118°19'44019089.8
2018-Jan-22 11:29N 31°10' E 121°53'5191086.8
2018-Jan-22 11:00N 22°38' E 120°14'16122308.1
2018-Jan-22 11:00N 24°25' E 118°03'452271391.4
2018-Jan-22 11:00N 31°09' E 121°55'5181053.1
2018-Jan-22 10:30N 22°38' E 120°14'51866540.1
2018-Jan-22 10:30N 31°07' E 121°57'45224661.3
2018-Jan-22 10:29N 24°25' E 118°03'161340.1
2018-Jan-22 10:00N 22°38' E 120°14'517206619.0
2018-Jan-22 10:00N 31°06' E 121°59'45249298.9
2018-Jan-22 10:00N 24°25' E 118°03'161316.9
2018-Jan-22 09:29N 22°38' E 120°14'16130527.6
2018-Jan-22 09:29N 24°25' E 118°03'161340.2
2018-Jan-22 09:00N 22°38' E 120°14'16114498.8
2018-Jan-22 09:00N 24°25' E 118°03'0 0.1
2018-Jan-22 08:30N 24°25' E 118°03'16138678.1
2018-Jan-22 08:30N 22°38' E 120°14'51630431.9
2018-Jan-22 08:29N 31°03' E 122°09'453922.8
2018-Jan-22 08:00N 24°25' E 118°04'16082471.1
2018-Jan-22 07:59N 22°38' E 120°14'16125224.9
2018-Jan-22 07:59N 24°25' E 118°03'46124757.8
2018-Jan-22 07:58N 31°33' E 121°18'56572.2
2018-Jan-22 07:52N 31°01' E 122°12'4671804.4
2018-Jan-22 07:37N 24°06' E 118°09'1451408.7
2018-Jan-22 07:30N 22°38' E 120°14'14526023.8
2018-Jan-22 07:30N 24°06' E 118°09'477858579.1
2018-Jan-22 07:30N 31°33' E 121°18'46192153.9
2018-Jan-22 07:30N 24°25' E 118°03'45190185.4
2018-Jan-22 07:29N 30°58' E 122°13'451929.2
2018-Jan-22 07:00N 24°25' E 118°03'161290159.9
2018-Jan-22 07:00N 22°38' E 120°14'53816834.0
2018-Jan-22 06:58N 31°33' E 121°18'613298.1
2018-Jan-22 06:57N 30°54' E 122°13'46516400.9
2018-Jan-22 06:56N 24°03' E 118°09'4563287.3
2018-Jan-22 06:47N 30°52' E 121°54'0 0.2
2018-Jan-22 06:30N 30°52' E 121°54'438121199.5
2018-Jan-22 06:30N 24°25' E 118°03'16110946.9
2018-Jan-22 06:29N 22°38' E 120°14'53833964.0
2018-Jan-22 06:28N 31°33' E 121°18'631967.0
2018-Jan-22 06:26N 30°50' E 122°12'5031161.6
2018-Jan-22 06:00N 22°38' E 120°14'16121492.8
2018-Jan-22 06:00N 24°25' E 118°03'46142532.6
2018-Jan-22 05:59N 31°33' E 121°18'51891.9
2018-Jan-22 05:56N 30°52' E 121°54'5021184.5
2018-Jan-22 05:30N 22°38' E 120°14'16148346.5
2018-Jan-22 05:30N 24°25' E 118°03'2475.2
2018-Jan-22 05:30N 24°25' E 118°05'2 4.0
2018-Jan-22 05:01N 24°25' E 118°03'16114503.9
2018-Jan-22 05:00N 22°38' E 120°14'5021741.4
2018-Jan-22 04:43N 30°52' E 121°54'5022381.5
2018-Jan-22 04:30N 22°38' E 120°14'1619356.9
2018-Jan-22 04:29N 24°25' E 118°03'2073980.2
2018-Jan-22 04:26N 25°09' E 121°46'173409.5
2018-Jan-22 04:00N 22°38' E 120°14'1733077.1
2018-Jan-22 03:57N 25°09' E 121°46'2073578.3
2018-Jan-22 03:54N 24°25' E 118°03'4611409.4
2018-Jan-22 03:34N 31°33' E 121°18'5389088.7
2018-Jan-22 03:30N 22°38' E 120°14'16124177.6
2018-Jan-22 03:30N 24°25' E 118°03'46116263.0
2018-Jan-22 03:28N 31°33' E 121°18'4606596.1
2018-Jan-22 03:24N 24°26' E 118°03'3 8.5
2018-Jan-22 03:00N 24°24' E 118°06'15971350.7
2018-Jan-22 03:00N 22°38' E 120°14'16122312.1
2018-Jan-22 03:00N 24°25' E 118°03'42922700.4
2018-Jan-22 02:59N 30°38' E 122°02'66194.2
2018-Jan-22 02:38N 31°33' E 121°18'5383926.9
2018-Jan-22 02:30N 22°38' E 120°14'161115999.1
2018-Jan-22 02:30N 24°25' E 118°03'2079790.9
2018-Jan-22 02:29N 25°09' E 121°46'207437.3
2018-Jan-22 02:00N 24°25' E 118°03'16116106.1
2018-Jan-22 02:00N 22°38' E 120°14'50237657.5
2018-Jan-22 01:59N 30°52' E 121°54'101325.3
2018-Jan-22 01:40N 31°59' E 120°26'4792644.2
2018-Jan-22 01:30N 24°15' E 118°10'15029958.9
2018-Jan-22 01:29N 22°38' E 120°14'1614872.4
2018-Jan-22 01:27N 24°25' E 118°03'161360.4
2018-Jan-22 01:00N 22°38' E 120°14'16123192.2
2018-Jan-22 01:00N 24°25' E 118°03'161323.9
2018-Jan-22 00:30N 22°38' E 120°14'16132213.0
2018-Jan-22 00:30N 24°25' E 118°03'161327.8
2018-Jan-22 00:00N 22°38' E 120°14'1619827.7
2018-Jan-21 23:59N 24°25' E 118°03'161332.9
2018-Jan-21 23:30N 22°38' E 120°14'161144958.5
2018-Jan-21 23:30N 24°25' E 118°03'43815005.2
2018-Jan-21 23:29N 30°52' E 121°54'402879.7
2018-Jan-21 23:01N 37°33' E 121°23'89763299.0
2018-Jan-21 23:00N 22°38' E 120°14'161115963.9
2018-Jan-21 23:00N 24°25' E 118°03'43840400.0
2018-Jan-21 23:00N 30°52' E 121°54'40116240.0
2018-Jan-21 22:58N 37°33' E 121°23'8971938.9
2018-Jan-21 22:30N 22°38' E 120°14'16138644.8
2018-Jan-21 22:30N 24°25' E 118°03'9858734.1
2018-Jan-21 22:30N 23°34' E 119°35'84426420.6
2018-Jan-21 22:28N 37°33' E 121°23'412884.3
2018-Jan-21 22:00N 30°43' E 122°14'497357556.1
2018-Jan-21 22:00N 22°38' E 120°14'16172459.0
2018-Jan-21 22:00N 24°25' E 118°03'80626376.1
2018-Jan-21 21:58N 37°33' E 121°23'11232476.9
2018-Jan-21 21:31N 21°09' E 111°03'51942487.9
2018-Jan-21 21:30N 22°38' E 120°14'51953431.1
2018-Jan-21 21:30N 21°08' E 111°03'493177654.3
2018-Jan-21 21:29N 23°34' E 119°33'9713400.2
2018-Jan-21 21:29N 24°25' E 118°03'80653729.0
2018-Jan-21 21:28N 37°33' E 121°23'8971940.1
2018-Jan-21 21:00N 22°38' E 120°14'16112881.3
2018-Jan-21 21:00N 24°25' E 118°03'43975171.7
2018-Jan-21 20:59N 21°08' E 110°59'44123680.2
2018-Jan-21 20:58N 24°17' E 118°10'813731725.6
2018-Jan-21 20:58N 37°33' E 121°23'8061733.2
2018-Jan-21 20:30N 24°25' E 118°03'16157982.0
2018-Jan-21 20:30N 22°38' E 120°14'89727829.7
2018-Jan-21 20:28N 37°33' E 121°23'112919532.4
2018-Jan-21 20:25N 21°06' E 110°54'4431098.9
2018-Jan-21 20:00N 24°25' E 118°03'161115955.2
2018-Jan-21 20:00N 22°38' E 120°14'1607794.2
2018-Jan-21 19:59N 24°25' E 118°04'80646046.3
2018-Jan-21 19:58N 37°33' E 121°23'113159875.7
2018-Jan-21 19:57N 21°06' E 110°50'5321203.7
2018-Jan-21 19:30N 22°38' E 120°14'16119997.4
2018-Jan-21 19:30N 24°25' E 118°03'45134557.6
2018-Jan-21 19:29N 31°04' E 122°01'39020948.4
2018-Jan-21 19:28N 37°33' E 121°23'1133240031.9
2018-Jan-21 19:28N 21°05' E 110°46'8511862.2
2018-Jan-21 19:00N 31°06' E 121°57'517464989.8
2018-Jan-21 19:00N 22°38' E 120°14'16120712.6
2018-Jan-21 19:00N 24°25' E 118°03'80627631.8
2018-Jan-21 18:58N 37°33' E 121°23'8971947.0
2018-Jan-21 18:30N 22°38' E 120°14'16112339.1
2018-Jan-21 18:30N 24°25' E 118°03'80630222.3
2018-Jan-21 18:28N 37°33' E 121°23'8971942.3
2018-Jan-21 18:00N 22°38' E 120°14'1616372.8
2018-Jan-21 17:59N 24°25' E 118°03'80660445.1
2018-Jan-21 17:58N 37°33' E 121°23'4017812.9
2018-Jan-21 17:55N 30°52' E 121°54'5021231.2
2018-Jan-21 17:31N 22°38' E 120°14'16126360.2
2018-Jan-21 17:30N 24°25' E 118°03'80623210.9
2018-Jan-21 17:28N 37°33' E 121°23'74415659.8
2018-Jan-21 17:25N 25°09' E 121°46'343833.3
2018-Jan-21 17:01N 30°52' E 121°54'502301252.6
2018-Jan-21 17:00N 22°38' E 120°14'1618655.8
2018-Jan-21 16:59N 24°25' E 118°03'80638684.6
2018-Jan-21 16:58N 37°33' E 121°23'3951777.7
2018-Jan-21 16:45N 30°60' E 122°11'5122110.1
2018-Jan-21 16:30N 22°38' E 120°14'1619829.7
2018-Jan-21 16:29N 24°25' E 118°03'80642666.8
2018-Jan-21 16:28N 37°33' E 121°23'40139063.5
2018-Jan-21 16:27N 30°52' E 121°54'17144.3
2018-Jan-21 16:21N 30°57' E 122°13'4501346.6
2018-Jan-21 16:00N 24°25' E 118°03'16157992.4
2018-Jan-21 16:00N 22°38' E 120°14'89723392.5
2018-Jan-21 15:58N 37°33' E 121°23'401481793.8
2018-Jan-21 15:58N 30°52' E 121°54'1446.3
2018-Jan-21 15:40N 30°39' E 122°01'4913071.7
2018-Jan-21 15:30N 22°38' E 120°14'161115984.7
2018-Jan-21 15:30N 24°25' E 118°03'42977202.0
2018-Jan-21 15:30N 30°39' E 122°01'42514722.2
2018-Jan-21 15:28N 24°29' E 118°04'802180467.3
2018-Jan-21 15:28N 37°33' E 121°23'8971949.4
2018-Jan-21 15:00N 22°38' E 120°14'16138662.5
2018-Jan-21 15:00N 24°25' E 118°03'80622318.0
2018-Jan-21 14:58N 37°33' E 121°23'1157793.6
2018-Jan-21 14:57N 35°52' E 120°15'7941784.2
2018-Jan-21 14:30N 22°38' E 120°14'16124164.7
2018-Jan-21 14:30N 24°25' E 118°03'80623978.0
2018-Jan-21 14:28N 37°33' E 121°23'1105511.8
2018-Jan-21 14:27N 35°55' E 120°19'7001564.1
2018-Jan-21 14:00N 24°25' E 118°03'80624587.1
2018-Jan-21 13:58N 37°33' E 121°23'1065363.2
2018-Jan-21 13:57N 35°60' E 120°20'80226478.4
2018-Jan-21 13:55N 22°38' E 120°14'1535389.4
2018-Jan-21 13:53N 24°20' E 118°10'822.0
2018-Jan-21 13:31N 24°25' E 118°03'1614601.4
2018-Jan-21 13:28N 22°38' E 120°14'897119561.6
2018-Jan-21 13:28N 37°33' E 121°23'1064334.8
2018-Jan-21 13:26N 36°02' E 120°15'7061622.9
2018-Jan-21 13:00N 24°25' E 118°03'16110938.9
2018-Jan-21 13:00N 22°38' E 120°14'89734711.2
2018-Jan-21 12:58N 37°33' E 121°23'40223313.3
2018-Jan-21 12:57N 30°52' E 121°54'320191809.9
2018-Jan-21 12:57N 36°00' E 120°13'8031821.3
2018-Jan-21 12:30N 22°37' E 120°14'80329798.4
2018-Jan-21 12:29N 36°00' E 120°13'1081721.6
2018-Jan-21 12:25N 37°33' E 121°23'80651810.1
2018-Jan-21 12:24N 24°25' E 118°03'43828647.3
2018-Jan-21 12:23N 30°52' E 121°54'5031327.8
2018-Jan-21 12:00N 22°37' E 120°13'1608884.1
2018-Jan-21 11:59N 24°25' E 118°03'43823871.4
2018-Jan-21 11:58N 30°52' E 121°54'40180294.7
2018-Jan-21 11:58N 37°33' E 121°23'108357.3
2018-Jan-21 11:40N 36°00' E 120°13'8025063.2
2018-Jan-21 11:30N 22°39' E 120°10'15825789.8
2018-Jan-21 11:30N 24°25' E 118°03'80624380.9
2018-Jan-21 11:28N 37°33' E 121°23'4014866.5
2018-Jan-21 11:23N 30°52' E 121°54'3201417.2
2018-Jan-21 11:09N 36°00' E 120°13'7044738.1
2018-Jan-21 11:01N 24°25' E 118°03'15415806.4
2018-Jan-21 11:00N 22°40' E 120°06'89526413.7
2018-Jan-21 10:58N 37°33' E 121°23'1081776.6
2018-Jan-21 10:54N 36°00' E 120°13'3209432.5
2018-Jan-21 10:52N 30°52' E 121°54'5011369.2
2018-Jan-21 10:30N 22°41' E 120°01'501601132.1
2018-Jan-21 10:30N 30°52' E 121°54'43812914.9
2018-Jan-21 10:28N 24°25' E 118°03'806170667.4
2018-Jan-21 10:28N 37°33' E 121°23'108323.7
2018-Jan-21 10:08N 36°00' E 120°13'7045558.9
2018-Jan-21 10:00N 24°25' E 118°03'80620289.1
2018-Jan-21 09:58N 37°33' E 121°23'40117004.2
2018-Jan-21 09:56N 30°52' E 121°54'3205183.8
2018-Jan-21 09:53N 36°00' E 120°13'7041723.2
2018-Jan-21 09:28N 24°25' E 118°03'806126145.5
2018-Jan-21 09:28N 37°33' E 121°23'74414553.4
2018-Jan-21 09:25N 25°09' E 121°46'65614314.8
2018-Jan-21 09:22N 36°00' E 120°13'320868.5
2018-Jan-21 09:00N 30°52' E 121°54'40111380.8
2018-Jan-21 08:58N 37°33' E 121°23'1082611.2
2018-Jan-21 08:55N 36°00' E 120°13'2791648.2
2018-Jan-21 08:45N 31°28' E 121°27'43174.2
2018-Jan-21 08:30N 30°52' E 121°54'43892681.2
2018-Jan-21 08:30N 24°25' E 118°03'80622318.0
2018-Jan-21 08:28N 37°33' E 121°23'3634383.5
2018-Jan-21 08:23N 31°30' E 121°25'4611229.1
2018-Jan-21 08:00N 24°25' E 118°03'46151848.2
2018-Jan-21 08:00N 31°31' E 121°23'605272.0
2018-Jan-21 07:59N 30°45' E 122°08'41018200.8
2018-Jan-21 07:58N 37°33' E 121°23'8061757.3
2018-Jan-21 07:30N 24°25' E 118°03'806725320.0
2018-Jan-21 07:30N 37°33' E 121°23'361648971.0
2018-Jan-21 07:30N 31°32' E 121°21'605364.7
2018-Jan-21 07:30N 30°47' E 122°07'327815.7
2018-Jan-21 07:06N 36°00' E 120°13'2723079.4
2018-Jan-21 07:00N 31°34' E 121°19'35926367.1
2018-Jan-21 06:59N 37°33' E 121°23'108704.8
2018-Jan-21 06:50N 36°00' E 120°13'270810.1
2018-Jan-21 06:30N 31°36' E 121°17'463139006.1
2018-Jan-21 06:30N 24°25' E 118°03'80659211.5
2018-Jan-21 06:29N 37°33' E 121°23'355739.5
2018-Jan-21 06:00N 31°38' E 121°15'4661678788.4
2018-Jan-21 06:00N 24°22' E 118°06'4426.7
2018-Jan-21 06:00N 24°25' E 118°03'80685334.2
2018-Jan-21 05:59N 37°33' E 121°23'8061680.0
2018-Jan-21 05:30N 24°25' E 118°03'0385.7
2018-Jan-21 05:30N 24°25' E 118°04'465128751.8
2018-Jan-21 05:30N 31°39' E 121°13'817.6
2018-Jan-21 05:03N 31°33' E 121°18'46110498.8
2018-Jan-21 05:00N 24°25' E 118°03'46672978.0
2018-Jan-21 05:00N 31°42' E 121°09'46372432.8
2018-Jan-21 05:00N 24°29' E 118°03'4577517.6
2018-Jan-21 04:56N 31°33' E 121°18'2731767.4
2018-Jan-21 04:47N 36°00' E 120°13'7042626.8
2018-Jan-21 04:31N 24°25' E 118°03'46862358.0
2018-Jan-21 04:30N 31°44' E 121°06'3974175.5
2018-Jan-21 04:24N 25°09' E 121°46'207509.8
2018-Jan-21 04:00N 24°25' E 118°03'4385991.2
2018-Jan-21 03:56N 30°52' E 121°54'3202015.5
2018-Jan-21 03:46N 36°00' E 120°13'0 0.0
2018-Jan-21 03:30N 36°00' E 120°13'70432087.4
2018-Jan-21 03:29N 24°25' E 118°03'46121826.7
2018-Jan-21 03:28N 31°33' E 121°18'513695.3
2018-Jan-21 03:27N 30°52' E 121°54'1593.9
2018-Jan-21 03:18N 31°07' E 121°56'4491534.6
2018-Jan-21 03:00N 24°28' E 118°03'449323279.5
2018-Jan-21 03:00N 31°07' E 121°55'305294.7
2018-Jan-21 01:58N 36°00' E 120°13'320679.3
2018-Jan-21 01:30N 30°52' E 121°54'32011065.0
2018-Jan-21 01:28N 36°00' E 120°13'0 0.0
2018-Jan-21 00:58N 36°00' E 120°13'3203316.6
2018-Jan-21 00:52N 30°52' E 121°54'0 0.0
2018-Jan-21 00:30N 30°52' E 121°54'3206429.4
2018-Jan-21 00:27N 36°00' E 120°13'0 0.0
2018-Jan-20 23:57N 36°00' E 120°13'0 0.0
2018-Jan-20 23:27N 36°00' E 120°13'3204835.4
2018-Jan-20 23:23N 30°52' E 121°54'320733.0
2018-Jan-20 22:57N 36°00' E 120°13'65624349.6
2018-Jan-20 22:55N 25°09' E 121°46'343806.0
2018-Jan-20 22:30N 30°52' E 121°54'3206690.8
2018-Jan-20 22:27N 36°00' E 120°13'320644.4
2018-Jan-20 21:57N 30°52' E 121°54'32025573.7
2018-Jan-20 21:56N 36°00' E 120°13'27311294.9
2018-Jan-20 21:55N 31°33' E 121°18'51125.3
2018-Jan-20 21:30N 30°52' E 121°54'6619938.0
2018-Jan-20 21:30N 31°44' E 121°06'1570.5
2018-Jan-20 21:17N 31°33' E 121°18'1141.1
2018-Jan-20 21:00N 31°42' E 121°09'631337.6
2018-Jan-20 20:58N 30°52' E 121°54'3206769.5
2018-Jan-20 20:55N 36°00' E 120°13'266655.0
2018-Jan-20 20:30N 31°39' E 121°13'591421.3
2018-Jan-20 20:28N 30°52' E 121°54'55119.2
2018-Jan-20 20:00N 31°36' E 121°17'55903.4
2018-Jan-20 19:57N 30°52' E 121°54'51721.5
2018-Jan-20 19:53N 31°33' E 121°18'2731399.8
2018-Jan-20 19:41N 36°00' E 120°13'2731575.0
2018-Jan-20 19:30N 31°33' E 121°20'219.0
2018-Jan-20 19:25N 31°33' E 121°18'27312438.6
2018-Jan-20 19:23N 36°00' E 120°13'276726.9
2018-Jan-20 19:00N 31°31' E 121°24'461818.9
2018-Jan-20 18:59N 30°52' E 121°54'511810.9
2018-Jan-20 18:57N 31°33' E 121°18'2734043.8
2018-Jan-20 18:53N 36°00' E 120°13'280718.6
2018-Jan-20 18:30N 31°27' E 121°28'37915318.9
2018-Jan-20 18:28N 25°09' E 121°46'6567570.2
2018-Jan-20 18:23N 36°00' E 120°13'0 0.0
2018-Jan-20 17:57N 36°00' E 120°13'3203552.0
2018-Jan-20 17:51N 30°52' E 121°54'0 0.0
2018-Jan-20 17:29N 30°52' E 121°54'3202403.3
2018-Jan-20 17:21N 36°00' E 120°13'2731646.8
2018-Jan-20 17:12N 31°33' E 121°18'0 0.0
2018-Jan-20 16:59N 31°33' E 121°18'273689.9
2018-Jan-20 16:35N 36°02' E 120°19'7088329.9
2018-Jan-20 16:30N 24°23' E 118°08'46215245.9
2018-Jan-20 16:29N 31°33' E 121°18'1054552651.9
2018-Jan-20 16:17N 26°56' W 080°03'1027264422.0
2018-Jan-20 16:07N 35°58' E 120°21'1027395810.2
2018-Jan-20 16:01N 26°57' W 080°05'10546643505.9
2018-Jan-20 16:00N 31°33' E 121°18'2671650.9
2018-Jan-20 15:50N 35°56' E 120°20'267791.5
2018-Jan-20 15:30N 31°33' E 121°18'10548115065.7
2018-Jan-20 15:24N 26°55' W 080°05'10599508773.3
2018-Jan-20 15:23N 31°09' E 121°54'4611187.7
2018-Jan-20 15:00N 24°13' E 118°10'4707109.6
2018-Jan-20 14:56N 31°33' E 121°18'10548140635.8
2018-Jan-20 14:51N 26°55' W 080°05'10601219327.7
2018-Jan-20 14:48N 22°18' E 114°11'6746193.1
2018-Jan-20 14:42N 31°06' E 122°00'45230.5
2018-Jan-20 14:30N 31°33' E 121°18'4728015.3
2018-Jan-20 14:30N 31°05' E 122°02'10609112002.7
2018-Jan-20 14:24N 26°55' W 080°05'1054824785.7
2018-Jan-20 13:59N 31°33' E 121°18'5111451.8
2018-Jan-20 13:58N 31°04' E 122°07'10615151037.3
2018-Jan-20 13:54N 26°55' W 080°05'1062026604.5
2018-Jan-20 13:30N 31°01' E 122°10'551202.0
2018-Jan-20 13:27N 31°33' E 121°18'4491278.1
2018-Jan-20 13:06N 24°32' E 118°19'0 0.0
2018-Jan-20 12:58N 24°32' E 118°19'43714187.9
2018-Jan-20 12:56N 30°58' E 122°12'17351.7
2018-Jan-20 12:54N 30°52' E 121°54'51397.3
2018-Jan-20 12:46N 31°33' E 121°18'0 0.0
2018-Jan-20 12:30N 31°33' E 121°18'44912436.8
2018-Jan-20 12:28N 24°32' E 118°19'4342885.6
2018-Jan-20 12:19N 30°54' E 122°14'17181.4
2018-Jan-20 12:13N 30°52' E 121°54'4251986.9
2018-Jan-20 12:00N 24°32' E 118°19'42513907.7
2018-Jan-20 11:59N 30°52' E 121°54'51443.7
2018-Jan-20 11:52N 31°33' E 121°18'4491249.5
2018-Jan-20 11:30N 24°32' E 118°19'42530597.8
2018-Jan-20 11:29N 30°52' E 121°54'51820.4
2018-Jan-20 11:26N 31°33' E 121°18'66533.6
2018-Jan-20 11:18N 30°47' E 122°14'2 5.5
2018-Jan-20 10:57N 30°45' E 122°14'18962.3
2018-Jan-20 10:56N 30°52' E 121°54'51122.7
2018-Jan-20 10:31N 31°33' E 121°18'514101.8
2018-Jan-20 10:30N 30°52' E 121°54'1969899.2
2018-Jan-20 10:30N 30°43' E 122°14'691418.9
2018-Jan-20 10:28N 31°33' E 121°18'4772093.4
2018-Jan-20 10:14N 24°06' E 118°09'2451220.3
2018-Jan-20 10:02N 22°18' E 114°09'24711531.8
2018-Jan-20 10:00N 24°08' E 118°09'24738585.3
2018-Jan-20 10:00N 22°18' E 114°09'67425821.4
2018-Jan-20 09:59N 31°33' E 121°18'4711006.9
2018-Jan-20 09:30N 24°13' E 118°10'47144593.5
2018-Jan-20 09:30N 31°33' E 121°18'466946.7
2018-Jan-20 09:00N 24°17' E 118°11'4639989.9
2018-Jan-20 08:58N 31°27' E 121°28'10309.3
2018-Jan-20 08:56N 31°33' E 121°18'4631090.2
2018-Jan-20 08:30N 24°21' E 118°09'20326042.3
2018-Jan-20 08:30N 25°09' E 121°46'385346242.2
2018-Jan-20 08:30N 31°33' E 121°18'61191.9
2018-Jan-20 08:29N 31°29' E 121°24'4 8.4
2018-Jan-20 08:01N 31°32' E 121°21'2926.3
2018-Jan-20 08:00N 31°33' E 121°18'461414949.9
2018-Jan-20 08:00N 24°25' E 118°05'1259.9
2018-Jan-20 08:00N 24°24' E 118°06'8072373.7
2018-Jan-20 07:40N 37°33' E 121°23'3602316.3
2018-Jan-20 07:30N 31°33' E 121°18'462138749.7
2018-Jan-20 07:30N 24°25' E 118°00'46420885.0
2018-Jan-20 07:29N 31°35' E 121°18'35818663.1
2018-Jan-20 07:28N 37°33' E 121°23'4011397.8
2018-Jan-20 07:10N 30°52' E 121°54'51310.5
2018-Jan-20 07:01N 31°33' E 121°18'5467.2
2018-Jan-20 07:00N 31°38' E 121°15'578484.4
2018-Jan-20 06:59N 30°52' E 121°54'40113383.1
2018-Jan-20 06:58N 37°33' E 121°23'360795.8
2018-Jan-20 06:31N 31°33' E 121°18'514873.9
2018-Jan-20 06:30N 30°52' E 121°54'6016540.3
2018-Jan-20 06:30N 31°40' E 121°12'35310422.5
2018-Jan-20 06:28N 37°33' E 121°23'360795.3
2018-Jan-20 06:01N 31°33' E 121°18'1120400.1
2018-Jan-20 06:00N 31°41' E 121°09'3517397.6
2018-Jan-20 05:58N 37°33' E 121°23'360795.8
2018-Jan-20 05:31N 31°33' E 121°18'3603699.5
2018-Jan-20 05:25N 37°33' E 121°23'7441830.4
2018-Jan-20 05:00N 25°09' E 121°46'385197852.7
2018-Jan-20 05:00N 31°33' E 121°18'3608353.7
2018-Jan-20 04:58N 37°33' E 121°23'7441609.3
2018-Jan-20 04:30N 25°09' E 121°46'74419546.1
2018-Jan-20 04:28N 37°33' E 121°23'3603383.8
2018-Jan-20 04:21N 31°33' E 121°18'0 0.0
2018-Jan-20 04:00N 31°33' E 121°18'384345963.3
2018-Jan-20 04:00N 25°09' E 121°46'74420441.4
2018-Jan-20 03:58N 37°33' E 121°23'7441641.8
2018-Jan-20 03:30N 25°09' E 121°46'38425626.9
2018-Jan-20 03:30N 31°33' E 121°18'36011172.3
2018-Jan-20 03:28N 37°33' E 121°23'0 0.0
2018-Jan-20 02:59N 37°33' E 121°23'74441840.6
2018-Jan-20 02:58N 25°09' E 121°46'38420967.1
2018-Jan-20 02:57N 31°33' E 121°18'51524.7
2018-Jan-20 02:51N 31°59' E 120°26'337931.1
2018-Jan-20 02:29N 37°33' E 121°23'80329203.0
2018-Jan-20 02:28N 24°28' E 118°03'45858893.7
2018-Jan-20 02:27N 31°33' E 121°18'51505.9
2018-Jan-20 02:21N 31°59' E 120°26'4711344.4
2018-Jan-20 02:00N 24°25' E 118°04'8061450098.7
2018-Jan-20 02:00N 37°33' E 121°23'36020249.9
2018-Jan-20 01:59N 31°33' E 121°18'51343.9
2018-Jan-20 01:50N 31°59' E 120°26'51091.5
2018-Jan-20 01:50N 32°01' E 120°32'49153.1
2018-Jan-20 01:30N 31°32' E 121°20'46287523.0
2018-Jan-20 01:30N 24°23' E 118°07'4728418.9
2018-Jan-20 01:27N 31°59' E 120°26'4741071.5
2018-Jan-20 01:00N 24°20' E 118°10'46311667.1
2018-Jan-20 00:58N 31°33' E 121°19'52264.1
2018-Jan-20 00:46N 31°59' E 120°26'51190.1
2018-Jan-20 00:30N 31°33' E 121°18'0 0.0
2018-Jan-20 00:00N 31°33' E 121°18'3581167.3
2018-Jan-19 23:41N 37°25' E 119°57'0 0.0
2018-Jan-19 23:29N 37°25' E 119°57'35833074.8
2018-Jan-19 23:29N 31°33' E 121°18'4632896.4
2018-Jan-19 23:19N 24°22' E 118°06'7882392.5
2018-Jan-19 22:59N 37°25' E 119°57'35813029.5
2018-Jan-19 22:58N 31°33' E 121°18'46146053.2
2018-Jan-19 22:57N 24°25' E 118°04'7851698.3
2018-Jan-19 22:29N 37°25' E 119°57'40528011.7
2018-Jan-19 22:28N 30°52' E 121°54'51213.3
2018-Jan-19 22:14N 31°33' E 121°18'3581462.4
2018-Jan-19 21:59N 37°25' E 119°57'35813028.4
2018-Jan-19 21:58N 31°33' E 121°18'265928.1
2018-Jan-19 21:40N 35°53' E 120°15'2651343.7
2018-Jan-19 21:29N 31°33' E 121°18'514992.7
2018-Jan-19 21:28N 30°52' E 121°54'3136705.1
2018-Jan-19 21:25N 35°54' E 120°18'313756.0
2018-Jan-19 21:00N 30°52' E 121°54'51747.9
2018-Jan-19 20:56N 31°33' E 121°18'27015400.6
2018-Jan-19 20:55N 35°58' E 120°21'270607.9
2018-Jan-19 20:29N 31°33' E 121°18'2734506.6
2018-Jan-19 20:25N 36°01' E 120°19'319127708.0
2018-Jan-19 20:25N 30°52' E 121°54'0 0.1
2018-Jan-19 19:58N 30°52' E 121°54'3216790.0
2018-Jan-19 19:55N 36°02' E 120°14'72215299.8
2018-Jan-19 19:52N 24°07' E 118°10'4767575.1
2018-Jan-19 19:49N 31°33' E 121°18'4721566.5
2018-Jan-19 19:30N 24°11' E 118°10'4724532.3
2018-Jan-19 19:24N 31°33' E 121°18'273327086.4
2018-Jan-19 19:24N 35°60' E 120°12'711255925.3
2018-Jan-19 19:24N 24°17' E 118°10'410.0
2018-Jan-19 19:00N 24°21' E 118°10'51521.6
2018-Jan-19 19:00N 24°16' E 118°11'7126761.9
2018-Jan-19 18:54N 35°60' E 120°12'2735247.4
2018-Jan-19 18:51N 31°33' E 121°18'4631361.1
2018-Jan-19 18:30N 24°20' E 118°10'7075499.6
2018-Jan-19 18:23N 35°60' E 120°12'2671578.3
2018-Jan-19 18:13N 31°38' E 121°16'5153.1
2018-Jan-19 18:11N 31°33' E 121°18'4612753.1
2018-Jan-19 18:00N 24°24' E 118°06'46197655.0
2018-Jan-19 18:00N 31°33' E 121°18'513130.4
2018-Jan-19 17:59N 30°52' E 121°54'543551.5
2018-Jan-19 17:58N 31°36' E 121°17'2692661.9
2018-Jan-19 17:52N 35°60' E 120°12'2412071.6
2018-Jan-19 17:45N 31°59' E 120°26'4701915.6
2018-Jan-19 17:31N 24°26' E 118°03'46183036.8
2018-Jan-19 17:30N 31°33' E 121°20'2734214.3
2018-Jan-19 17:26N 35°60' E 120°12'2411388.8
2018-Jan-19 17:16N 31°59' E 120°26'11711657.8
2018-Jan-19 17:15N 30°37' E 122°03'68405.7
2018-Jan-19 17:05N 31°33' E 121°18'675.7
2018-Jan-19 17:00N 31°31' E 121°24'6121.0
2018-Jan-19 16:58N 31°33' E 121°18'2732542.1
2018-Jan-19 16:51N 35°60' E 120°12'2413167.9
2018-Jan-19 16:47N 31°59' E 120°26'6704588.0
2018-Jan-19 16:38N 22°18' E 114°11'1 8.7
2018-Jan-19 16:30N 22°17' E 114°10'6719512.4
2018-Jan-19 16:26N 31°59' E 120°26'1012568.0
2018-Jan-19 16:24N 30°52' E 121°54'513028.1
2018-Jan-19 16:23N 31°33' E 121°18'51136.9
2018-Jan-19 16:00N 30°52' E 121°54'511015.0
2018-Jan-19 15:57N 31°33' E 121°18'51113.8
2018-Jan-19 15:30N 30°52' E 121°54'517105.6
2018-Jan-19 15:30N 31°33' E 121°18'2731703.6
2018-Jan-19 15:20N 35°60' E 120°12'319834.3
2018-Jan-19 14:57N 30°52' E 121°54'517389.2
2018-Jan-19 14:57N 31°33' E 121°18'4604071.3
2018-Jan-19 14:50N 24°27' E 118°00'70281551.1
2018-Jan-19 14:50N 35°60' E 120°12'7032203.7
2018-Jan-19 14:30N 24°26' E 118°03'4606471.5
2018-Jan-19 14:26N 31°33' E 121°18'51554.7
2018-Jan-19 14:21N 30°52' E 121°54'31911731.6
2018-Jan-19 14:19N 35°60' E 120°12'241869.7
2018-Jan-19 14:02N 31°59' E 120°26'47214513.7
2018-Jan-19 14:00N 24°24' E 118°07'14662.5
2018-Jan-19 13:59N 24°32' E 118°19'44955751.1
2018-Jan-19 13:59N 31°33' E 121°18'51359.4
2018-Jan-19 13:50N 31°59' E 120°26'101976.1
2018-Jan-19 13:44N 30°52' E 121°54'3191919.4
2018-Jan-19 13:34N 35°60' E 120°12'69411959.5
2018-Jan-19 13:30N 24°32' E 118°19'151323.8
2018-Jan-19 13:30N 24°27' E 118°03'92475.6
2018-Jan-19 13:30N 24°21' E 118°10'46326870.3
2018-Jan-19 13:29N 31°33' E 121°18'51359.4
2018-Jan-19 13:20N 31°59' E 120°26'24110585.6
2018-Jan-19 13:19N 35°60' E 120°12'7042303.0
2018-Jan-19 13:00N 24°25' E 118°06'96178.7
2018-Jan-19 13:00N 24°17' E 118°11'1712062.8
2018-Jan-19 13:00N 24°32' E 118°19'44911801.5
2018-Jan-19 12:58N 31°33' E 121°18'5126235.3
2018-Jan-19 12:58N 31°59' E 120°26'2411555.6
2018-Jan-19 12:48N 35°60' E 120°12'7142374.8
2018-Jan-19 12:30N 24°14' E 118°11'2010264.2
2018-Jan-19 12:30N 24°32' E 118°19'44957742.3
2018-Jan-19 12:30N 31°33' E 121°18'462184860.9
2018-Jan-19 12:30N 24°22' E 118°09'42823321.7
2018-Jan-19 12:29N 30°36' E 122°01'3361922.9
2018-Jan-19 12:18N 35°60' E 120°12'273912.8
2018-Jan-19 12:00N 31°33' E 121°18'44930505.7
2018-Jan-19 11:59N 24°32' E 118°19'231160.6
2018-Jan-19 11:58N 24°10' E 118°11'9418.9
2018-Jan-19 11:57N 24°19' E 118°11'4296013.0
2018-Jan-19 11:53N 30°36' E 122°01'3364350.8
2018-Jan-19 11:48N 35°60' E 120°12'8812349.5
2018-Jan-19 11:25N 22°18' E 114°09'6743136.0
2018-Jan-19 11:13N 31°33' E 121°18'2 9.3
2018-Jan-19 11:00N 31°34' E 121°19'386154437.9
2018-Jan-19 11:00N 25°09' E 121°46'387782.4
2018-Jan-19 10:31N 31°35' E 121°19'53267.7
2018-Jan-19 10:19N 30°52' E 121°54'53177.4
2018-Jan-19 10:01N 31°36' E 121°19'70409.0
2018-Jan-19 09:50N 30°36' E 122°01'67172.1
2018-Jan-19 09:27N 31°36' E 121°26'728.3
2018-Jan-19 09:11N 31°33' E 121°18'2 9.1
2018-Jan-19 09:00N 31°34' E 121°18'576.9
2018-Jan-19 08:56N 31°37' E 121°23'270606.8
2018-Jan-19 08:30N 35°60' E 120°12'273981259.1
2018-Jan-19 08:30N 31°33' E 121°18'5416623.1
2018-Jan-19 08:25N 22°34' E 120°19'5411087.2
2018-Jan-19 07:55N 31°33' E 121°18'2731635.4
2018-Jan-19 07:45N 35°60' E 120°12'2721125.5
2018-Jan-19 07:30N 31°34' E 121°19'5425690.7
2018-Jan-19 07:25N 22°34' E 120°19'5421164.1
2018-Jan-19 06:57N 31°34' E 121°18'52907.3
2018-Jan-19 06:53N 30°52' E 121°54'1810981.2
2018-Jan-19 06:53N 30°42' E 122°12'119444.0
2018-Jan-19 06:37N 31°59' E 120°26'117964.5
2018-Jan-19 06:30N 30°45' E 122°13'33127672.1
2018-Jan-19 06:29N 35°60' E 120°12'2701905.3
2018-Jan-19 06:21N 31°35' E 121°17'50565.6
2018-Jan-19 06:15N 31°59' E 120°26'115450.4
2018-Jan-19 06:00N 30°48' E 122°13'3278186.3
2018-Jan-19 05:58N 35°60' E 120°12'2691261.9
2018-Jan-19 05:45N 31°36' E 121°16'66272.9
2018-Jan-19 05:30N 30°52' E 122°13'642633.4
2018-Jan-19 05:29N 31°35' E 121°17'27012798.5
2018-Jan-19 05:28N 35°60' E 120°12'7062608.0
2018-Jan-19 05:11N 24°24' E 117°57'861.3
2018-Jan-19 05:03N 24°29' E 118°04'4448691.4
2018-Jan-19 05:00N 30°55' E 122°12'3216280.9
2018-Jan-19 04:57N 35°60' E 120°12'70630979.0
2018-Jan-19 04:56N 24°24' E 117°57'87468.1
2018-Jan-19 04:56N 24°29' E 118°04'4593365.4
2018-Jan-19 04:48N 31°35' E 121°17'60208.8
2018-Jan-19 04:30N 30°58' E 122°12'44815503.2
2018-Jan-19 04:29N 24°28' E 118°03'5386.2
2018-Jan-19 04:28N 24°25' E 117°59'46353742.1
2018-Jan-19 04:27N 31°33' E 121°18'27316085.9
2018-Jan-19 04:26N 35°60' E 120°12'7041638.2
2018-Jan-19 04:01N 24°25' E 118°05'452162648.0
2018-Jan-19 04:00N 31°01' E 122°11'45510842.9
2018-Jan-19 03:58N 24°24' E 117°59'70627341.8
2018-Jan-19 03:56N 36°01' E 120°14'27446926.4
2018-Jan-19 03:56N 31°33' E 121°18'53125.5
2018-Jan-19 03:31N 31°02' E 122°09'454136073.0
2018-Jan-19 03:30N 24°22' E 118°09'10233.5
2018-Jan-19 03:28N 24°24' E 117°59'70815161.9
2018-Jan-19 03:25N 36°02' E 120°18'2749471.9
2018-Jan-19 03:23N 31°33' E 121°18'1 3.9
2018-Jan-19 03:01N 31°32' E 121°20'499378.5
2018-Jan-19 03:00N 31°03' E 122°06'457822082.4
2018-Jan-19 03:00N 24°18' E 118°10'12313.9
2018-Jan-19 02:58N 24°24' E 117°59'70513722.9
2018-Jan-19 02:55N 35°59' E 120°21'240786.4
2018-Jan-19 02:36N 31°59' E 120°26'100948.0
2018-Jan-19 02:30N 31°04' E 122°04'46034492.3
2018-Jan-19 02:29N 24°15' E 118°08'13494.2
2018-Jan-19 02:28N 24°24' E 117°59'4636361.8
2018-Jan-19 02:23N 31°32' E 121°20'45117.3
2018-Jan-19 02:01N 31°05' E 122°01'4641782.9
2018-Jan-19 02:00N 31°33' E 121°18'46310747.8
2018-Jan-19 01:58N 24°25' E 117°59'454995.7
2018-Jan-19 01:31N 31°06' E 121°59'4654603.3
2018-Jan-19 01:30N 31°35' E 121°17'46510583.8
2018-Jan-19 01:28N 24°25' E 117°59'4651007.4
2018-Jan-19 01:00N 31°35' E 121°17'424005.5
2018-Jan-19 01:00N 31°07' E 121°55'45416335.7
2018-Jan-19 00:58N 24°25' E 117°59'4721106.7
2018-Jan-19 00:32N 31°59' E 120°26'883030.2
2018-Jan-19 00:31N 31°10' E 121°51'371651.4
2018-Jan-19 00:29N 31°33' E 121°18'46320821.6
2018-Jan-19 00:28N 24°25' E 117°59'4721913.3
2018-Jan-19 00:13N 31°59' E 120°26'83397.6
2018-Jan-19 00:01N 31°13' E 121°48'323036.0
2018-Jan-19 00:00N 31°33' E 121°18'46313766.4
2018-Jan-18 23:58N 24°25' E 117°59'463996.3
2018-Jan-18 23:30N 31°33' E 121°18'46312813.5
2018-Jan-18 23:28N 24°25' E 117°59'463926.4
2018-Jan-18 22:58N 31°33' E 121°18'0 0.0
2018-Jan-18 22:30N 31°33' E 121°18'46311898.2
2018-Jan-18 22:28N 24°25' E 117°59'4391570.9
2018-Jan-18 22:11N 30°42' E 122°13'2 9.2
2018-Jan-18 22:00N 30°43' E 122°13'682826.9
2018-Jan-18 21:59N 31°33' E 121°18'46324496.3
2018-Jan-18 21:58N 24°25' E 117°59'4616937.7
2018-Jan-18 21:54N 31°26' E 121°29'4 9.1
2018-Jan-18 21:31N 31°29' E 121°26'8485.5
2018-Jan-18 21:30N 31°33' E 121°18'6529298.4
2018-Jan-18 21:29N 30°48' E 122°13'44516846.3
2018-Jan-18 21:28N 24°25' E 117°59'4631016.9
2018-Jan-18 21:01N 31°31' E 121°22'5935243.4
2018-Jan-18 21:00N 30°52' E 122°13'44810473.3
2018-Jan-18 20:58N 24°25' E 117°59'4641018.9
2018-Jan-18 20:31N 31°34' E 121°19'6014346.1
2018-Jan-18 20:30N 30°56' E 122°13'45111207.2
2018-Jan-18 20:28N 24°25' E 117°59'454992.9
2018-Jan-18 20:00N 30°60' E 122°11'606379.9
2018-Jan-18 20:00N 31°37' E 121°16'46613864.1
2018-Jan-18 19:58N 24°25' E 117°59'4671019.0
2018-Jan-18 19:30N 31°39' E 121°13'593862.1
2018-Jan-18 19:29N 31°03' E 122°08'45517429.0
2018-Jan-18 19:28N 24°25' E 117°59'4681027.1
2018-Jan-18 19:01N 31°41' E 121°10'46810527.8
2018-Jan-18 18:58N 24°25' E 117°59'591317592.7
2018-Jan-18 18:38N 49°17' W 122°51'541546302.1
2018-Jan-18 18:31N 31°59' E 120°26'5413335995.1
2018-Jan-18 18:30N 49°18' W 122°53'5396273607.8
2018-Jan-18 18:29N 31°43' E 121°08'46942176.7
2018-Jan-18 18:28N 24°25' E 117°59'0 0.2
2018-Jan-18 17:58N 24°25' E 117°59'5908312779.9
2018-Jan-18 17:57N 49°20' W 122°56'539316708.5
2018-Jan-18 17:37N 31°33' E 121°18'1 6.8
2018-Jan-18 17:31N 31°33' E 121°19'539239214.2
2018-Jan-18 17:22N 49°20' W 122°57'2 4.4
2018-Jan-18 16:58N 49°18' W 122°58'539158989.6
2018-Jan-18 16:53N 31°35' E 121°18'539712227.3
2018-Jan-18 16:26N 49°17' W 122°51'53985792.6
2018-Jan-18 15:30N 31°33' E 121°18'463416718.2
2018-Jan-18 15:30N 24°24' E 117°59'2 4.4
2018-Jan-18 15:00N 24°25' E 118°01'46116128.0
2018-Jan-18 14:59N 31°33' E 121°18'51166.3
2018-Jan-18 14:40N 31°59' E 120°26'4712859.3
2018-Jan-18 14:30N 24°25' E 118°05'46130713.7
2018-Jan-18 14:30N 31°33' E 121°18'512135.0
2018-Jan-18 14:28N 31°59' E 120°26'4721024.5
2018-Jan-18 14:00N 24°23' E 118°08'46225575.2
2018-Jan-18 13:59N 31°33' E 121°18'511505.0
2018-Jan-18 13:57N 31°59' E 120°26'7163.9
2018-Jan-18 13:55N 32°00' E 120°34'91651.6
2018-Jan-18 13:47N 31°06' E 121°59'4531698.4
2018-Jan-18 13:30N 24°20' E 118°10'46323162.8
2018-Jan-18 13:29N 31°33' E 121°18'5025789.4
2018-Jan-18 13:29N 32°02' E 120°30'962039.7
2018-Jan-18 13:26N 31°05' E 122°01'4551055.3
2018-Jan-18 13:00N 24°17' E 118°11'46617842.4
2018-Jan-18 12:59N 31°33' E 121°19'469983.1
2018-Jan-18 12:30N 24°15' E 118°11'4683223.3
2018-Jan-18 12:22N 31°33' E 121°18'837.8
2018-Jan-18 12:10N 31°29' E 121°25'4693100.2
2018-Jan-18 12:00N 24°12' E 118°11'469281695.0
2018-Jan-18 12:00N 31°29' E 121°24'3 6.5
2018-Jan-18 11:29N 31°31' E 121°21'47262886.3
2018-Jan-18 11:29N 24°11' E 118°11'47210963.1
2018-Jan-18 11:26N 31°33' E 121°18'4652925.3
2018-Jan-18 11:16N 24°15' E 118°20'310.3
2018-Jan-18 10:57N 24°16' E 118°17'465836911.7
2018-Jan-18 10:57N 31°33' E 121°18'4723616.0
2018-Jan-18 10:50N 24°11' E 118°10'722.2
2018-Jan-18 10:30N 24°18' E 118°12'759.9
2018-Jan-18 10:23N 24°11' E 118°10'0 0.0
2018-Jan-18 09:59N 24°11' E 118°10'0 0.1
2018-Jan-18 09:20N 24°11' E 118°11'0 0.0
2018-Jan-18 08:59N 24°11' E 118°11'4721479.3
2018-Jan-18 08:39N 31°33' E 121°18'6734887.0
2018-Jan-18 08:31N 22°17' E 114°11'011.1
2018-Jan-18 08:30N 22°17' E 114°11'2487827.2
2018-Jan-18 08:29N 24°11' E 118°11'7129632.7
2018-Jan-18 08:24N 35°54' E 120°17'2662883.9
2018-Jan-18 08:19N 31°33' E 121°18'4721088.2
2018-Jan-18 07:53N 24°11' E 118°11'71618289.5
2018-Jan-18 07:50N 35°58' E 120°21'270874.9
2018-Jan-18 07:32N 31°33' E 121°18'0 1.8
2018-Jan-18 07:31N 31°33' E 121°18'47214405.2
2018-Jan-18 07:29N 24°11' E 118°11'7195007.8
2018-Jan-18 07:20N 36°01' E 120°18'274831.1
2018-Jan-18 07:00N 31°32' E 121°19'47217705.8
2018-Jan-18 06:59N 24°11' E 118°11'7184382.9
2018-Jan-18 06:49N 36°01' E 120°14'3181513.7
2018-Jan-18 06:36N 30°58' E 122°10'55569.1
2018-Jan-18 06:30N 31°32' E 121°20'47216040.7
2018-Jan-18 06:29N 24°11' E 118°11'45910588.8
2018-Jan-18 06:26N 30°57' E 122°10'3182095.6
2018-Jan-18 06:17N 35°60' E 120°12'723371681.2
2018-Jan-18 06:17N 24°05' E 118°10'4781688.0
2018-Jan-18 06:00N 31°32' E 121°20'47223291.6
2018-Jan-18 05:59N 24°11' E 118°10'3208.7
2018-Jan-18 05:58N 24°08' E 118°11'4863923.2
2018-Jan-18 05:50N 31°59' E 120°26'2417615.2
2018-Jan-18 05:48N 35°60' E 120°12'3221436.4
2018-Jan-18 05:35N 30°53' E 122°08'4525774.6
2018-Jan-18 05:30N 24°12' E 118°11'45290372.5
2018-Jan-18 05:30N 30°52' E 122°08'4533674.9
2018-Jan-18 05:23N 24°11' E 118°10'71720164.7
2018-Jan-18 05:20N 35°60' E 120°12'0 0.0
2018-Jan-18 05:01N 35°60' E 120°12'711426794.0
2018-Jan-18 05:00N 24°16' E 118°11'670.1
2018-Jan-18 04:56N 24°11' E 118°10'45024543.2
2018-Jan-18 04:54N 30°49' E 122°07'1111058.8
2018-Jan-18 04:48N 31°59' E 120°26'4741587.6
2018-Jan-18 04:30N 24°20' E 118°10'70767016.1
2018-Jan-18 04:30N 35°60' E 120°12'717258097.0
2018-Jan-18 04:29N 24°11' E 118°10'4835163.7
2018-Jan-18 04:24N 31°59' E 120°26'4731211.5
2018-Jan-18 04:00N 24°26' E 117°53'1424323.4
2018-Jan-18 04:00N 24°22' E 118°07'14398.9
2018-Jan-18 03:58N 24°09' E 118°10'7193137.7
2018-Jan-18 03:45N 35°60' E 120°12'7213069.3
2018-Jan-18 03:30N 24°06' E 118°10'72130193.4
2018-Jan-18 03:29N 35°60' E 120°12'27316630.6
2018-Jan-18 03:28N 31°33' E 121°18'67411446.3
2018-Jan-18 03:24N 22°18' E 114°09'2421058.9
2018-Jan-18 03:11N 24°26' E 117°53'4652652.0
2018-Jan-18 03:00N 31°33' E 121°20'2729251.2
2018-Jan-18 02:58N 35°60' E 120°12'273566.2
2018-Jan-18 02:30N 31°33' E 121°18'273640.9
2018-Jan-18 02:04N 35°60' E 120°12'2733924.8
2018-Jan-18 02:00N 31°33' E 121°18'2736094.4
2018-Jan-18 01:57N 35°60' E 120°12'273539.7
2018-Jan-18 01:27N 31°33' E 121°18'0 0.0
2018-Jan-18 00:59N 31°33' E 121°18'2736629.8
2018-Jan-18 00:57N 35°60' E 120°12'241976.5
2018-Jan-18 00:42N 31°59' E 120°26'241200.1
2018-Jan-17 23:30N 35°60' E 120°12'  

Dump ship's entire track history